<?xml version="1.0" encoding="UTF-8" standalone="no" ?>
<gpx xmlns="http://www.topografix.com/GPX/1/1" xmlns:xsi="http://www.w3.org/2001/XMLSchema-instance" xsi:schemaLocation="http://www.topografix.com/GPX/1/1 http://www.topografix.com/GPX/1/1/gpx.xsd" version="1.1" creator="VisuGPX - https://www.visugpx.com">
  <metadata>
    <name>Circuit Du Dramont + Bord De Mer St Raphael</name>
    <desc><![CDATA[Randonnée - St Raphael-Cap Dramont, par le sentier douanie
Tour et sommet du cap Dramont
retour par la route...]]></desc>
  </metadata>
  <trk>
    <name><![CDATA[2016-11-12 10:22]]></name>
    <desc><![CDATA[<p>Heure de départ: 11/12/2016 10:22</p><p>Heure d'arrivée: 11/12/2016 18:04</p><p>Distance: 18,2 km (07:41)</p><p>Temps déplacement: 04:26</p><p>Vitesse moyenne: 2,36 km/h</p><p>Vitesse moyenne mouv.: 4,09 km/h</p><p>Vitesse Max.: 10,06km/h</p><p>Altitude minimale: -37 m</p><p>Altitude maximale: 109 m</p><p>Vitesse de montée: 128,5 m/h</p><p>Vitesse de descente: -186,5 m/h</p><p>Gain d'altitude: 564 m</p><p>Perte d'altitude: -532 m</p><p>Temps de montée: 04:23</p><p>Temps de descente: 02:51</p><hr align="center" width="480" style="height: 2px; width: 517px"/>]]></desc>
    <trkseg>
      <trkpt lat="43.41076" lon="6.78321">
        <ele>-37.82</ele>
        <time>2016-11-12T09:22:42Z</time>
      </trkpt>
      <trkpt lat="43.41058" lon="6.78328">
        <ele>-10.32</ele>
        <time>2016-11-12T09:22:49Z</time>
      </trkpt>
      <trkpt lat="43.4104" lon="6.78332">
        <ele>0.17</ele>
        <time>2016-11-12T09:23:06Z</time>
      </trkpt>
      <trkpt lat="43.41023" lon="6.78318">
        <ele>2.37</ele>
        <time>2016-11-12T09:23:27Z</time>
      </trkpt>
      <trkpt lat="43.41008" lon="6.78304">
        <ele>3.98</ele>
        <time>2016-11-12T09:23:45Z</time>
      </trkpt>
      <trkpt lat="43.40989" lon="6.78307">
        <ele>4.17</ele>
        <time>2016-11-12T09:24:11Z</time>
      </trkpt>
      <trkpt lat="43.40971" lon="6.78299">
        <ele>5.8</ele>
        <time>2016-11-12T09:24:25Z</time>
      </trkpt>
      <trkpt lat="43.4096" lon="6.78319">
        <ele>4.22</ele>
        <time>2016-11-12T09:24:50Z</time>
      </trkpt>
      <trkpt lat="43.40973" lon="6.78336">
        <ele>8.18</ele>
        <time>2016-11-12T09:25:18Z</time>
      </trkpt>
      <trkpt lat="43.40965" lon="6.78358">
        <ele>8.17</ele>
        <time>2016-11-12T09:25:39Z</time>
      </trkpt>
      <trkpt lat="43.40951" lon="6.78373">
        <ele>0.82</ele>
        <time>2016-11-12T09:25:54Z</time>
      </trkpt>
      <trkpt lat="43.40943" lon="6.78396">
        <ele>0.17</ele>
        <time>2016-11-12T09:26:23Z</time>
      </trkpt>
      <trkpt lat="43.40949" lon="6.78419">
        <ele>9.89</ele>
        <time>2016-11-12T09:27:02Z</time>
      </trkpt>
      <trkpt lat="43.40938" lon="6.78438">
        <ele>8.77</ele>
        <time>2016-11-12T09:28:06Z</time>
      </trkpt>
      <trkpt lat="43.40937" lon="6.78463">
        <ele>8.38</ele>
        <time>2016-11-12T09:28:41Z</time>
      </trkpt>
      <trkpt lat="43.40936" lon="6.78489">
        <ele>6.34</ele>
        <time>2016-11-12T09:29:37Z</time>
      </trkpt>
      <trkpt lat="43.40941" lon="6.78513">
        <ele>7.18</ele>
        <time>2016-11-12T09:30:09Z</time>
      </trkpt>
      <trkpt lat="43.40934" lon="6.78538">
        <ele>10.37</ele>
        <time>2016-11-12T09:30:45Z</time>
      </trkpt>
      <trkpt lat="43.40919" lon="6.78554">
        <ele>15.74</ele>
        <time>2016-11-12T09:31:30Z</time>
      </trkpt>
      <trkpt lat="43.40927" lon="6.78577">
        <ele>21.21</ele>
        <time>2016-11-12T09:32:09Z</time>
      </trkpt>
      <trkpt lat="43.40936" lon="6.78601">
        <ele>7.41</ele>
        <time>2016-11-12T09:32:52Z</time>
      </trkpt>
      <trkpt lat="43.40949" lon="6.78619">
        <ele>-0.82</ele>
        <time>2016-11-12T09:33:37Z</time>
      </trkpt>
      <trkpt lat="43.40961" lon="6.78638">
        <ele>6.38</ele>
        <time>2016-11-12T09:34:14Z</time>
      </trkpt>
      <trkpt lat="43.40976" lon="6.78654">
        <ele>6.26</ele>
        <time>2016-11-12T09:34:52Z</time>
      </trkpt>
      <trkpt lat="43.4098" lon="6.78679">
        <ele>0.18</ele>
        <time>2016-11-12T09:38:11Z</time>
      </trkpt>
      <trkpt lat="43.40974" lon="6.78703">
        <ele>0.37</ele>
        <time>2016-11-12T09:38:36Z</time>
      </trkpt>
      <trkpt lat="43.40967" lon="6.78726">
        <ele>-2.56</ele>
        <time>2016-11-12T09:39:09Z</time>
      </trkpt>
      <trkpt lat="43.40951" lon="6.78739">
        <ele>-0.89</ele>
        <time>2016-11-12T09:39:26Z</time>
      </trkpt>
      <trkpt lat="43.40933" lon="6.78744">
        <ele>-4.82</ele>
        <time>2016-11-12T09:39:46Z</time>
      </trkpt>
      <trkpt lat="43.40916" lon="6.78737">
        <ele>-4.98</ele>
        <time>2016-11-12T09:40:03Z</time>
      </trkpt>
      <trkpt lat="43.40898" lon="6.7874">
        <ele>-1.76</ele>
        <time>2016-11-12T09:40:30Z</time>
      </trkpt>
      <trkpt lat="43.40884" lon="6.78756">
        <ele>4.02</ele>
        <time>2016-11-12T09:40:53Z</time>
      </trkpt>
      <trkpt lat="43.40892" lon="6.78779">
        <ele>10.21</ele>
        <time>2016-11-12T09:41:14Z</time>
      </trkpt>
      <trkpt lat="43.4089" lon="6.78804">
        <ele>7.01</ele>
        <time>2016-11-12T09:41:54Z</time>
      </trkpt>
      <trkpt lat="43.40876" lon="6.7882">
        <ele>1.23</ele>
        <time>2016-11-12T09:42:25Z</time>
      </trkpt>
      <trkpt lat="43.4087" lon="6.78844">
        <ele>-1.02</ele>
        <time>2016-11-12T09:42:43Z</time>
      </trkpt>
      <trkpt lat="43.4086" lon="6.78865">
        <ele>-1.99</ele>
        <time>2016-11-12T09:43:09Z</time>
      </trkpt>
      <trkpt lat="43.4086" lon="6.7889">
        <ele>3.14</ele>
        <time>2016-11-12T09:43:36Z</time>
      </trkpt>
      <trkpt lat="43.40858" lon="6.78916">
        <ele>4.1</ele>
        <time>2016-11-12T09:44:11Z</time>
      </trkpt>
      <trkpt lat="43.4086" lon="6.78942">
        <ele>0.39</ele>
        <time>2016-11-12T09:44:39Z</time>
      </trkpt>
      <trkpt lat="43.4086" lon="6.78967">
        <ele>2.13</ele>
        <time>2016-11-12T09:45:05Z</time>
      </trkpt>
      <trkpt lat="43.40879" lon="6.7897">
        <ele>0.98</ele>
        <time>2016-11-12T09:45:44Z</time>
      </trkpt>
      <trkpt lat="43.40892" lon="6.78988">
        <ele>7.21</ele>
        <time>2016-11-12T09:47:00Z</time>
      </trkpt>
      <trkpt lat="43.40901" lon="6.79009">
        <ele>14.36</ele>
        <time>2016-11-12T09:47:41Z</time>
      </trkpt>
      <trkpt lat="43.40914" lon="6.7903">
        <ele>5.58</ele>
        <time>2016-11-12T09:49:45Z</time>
      </trkpt>
      <trkpt lat="43.40913" lon="6.79056">
        <ele>1.14</ele>
        <time>2016-11-12T09:54:11Z</time>
      </trkpt>
      <trkpt lat="43.40919" lon="6.79079">
        <ele>3.18</ele>
        <time>2016-11-12T09:54:59Z</time>
      </trkpt>
      <trkpt lat="43.40924" lon="6.79104">
        <ele>3.18</ele>
        <time>2016-11-12T09:55:35Z</time>
      </trkpt>
      <trkpt lat="43.40932" lon="6.79125">
        <ele>3.34</ele>
        <time>2016-11-12T09:56:22Z</time>
      </trkpt>
      <trkpt lat="43.40945" lon="6.79144">
        <ele>7.18</ele>
        <time>2016-11-12T09:56:42Z</time>
      </trkpt>
      <trkpt lat="43.4096" lon="6.79158">
        <ele>14.13</ele>
        <time>2016-11-12T09:57:05Z</time>
      </trkpt>
      <trkpt lat="43.40974" lon="6.79173">
        <ele>6.14</ele>
        <time>2016-11-12T09:57:41Z</time>
      </trkpt>
      <trkpt lat="43.40992" lon="6.79173">
        <ele>3.18</ele>
        <time>2016-11-12T09:58:20Z</time>
      </trkpt>
      <trkpt lat="43.41009" lon="6.79162">
        <ele>12.98</ele>
        <time>2016-11-12T09:58:57Z</time>
      </trkpt>
      <trkpt lat="43.41015" lon="6.79187">
        <ele>8.14</ele>
        <time>2016-11-12T09:59:57Z</time>
      </trkpt>
      <trkpt lat="43.41022" lon="6.79209">
        <ele>6.22</ele>
        <time>2016-11-12T10:01:22Z</time>
      </trkpt>
      <trkpt lat="43.41038" lon="6.79193">
        <ele>2.14</ele>
        <time>2016-11-12T10:01:53Z</time>
      </trkpt>
      <trkpt lat="43.41055" lon="6.79182">
        <ele>5.38</ele>
        <time>2016-11-12T10:02:30Z</time>
      </trkpt>
      <trkpt lat="43.41066" lon="6.79203">
        <ele>4.38</ele>
        <time>2016-11-12T10:03:13Z</time>
      </trkpt>
      <trkpt lat="43.41069" lon="6.79228">
        <ele>1.98</ele>
        <time>2016-11-12T10:03:32Z</time>
      </trkpt>
      <trkpt lat="43.41064" lon="6.79252">
        <ele>9.13</ele>
        <time>2016-11-12T10:03:50Z</time>
      </trkpt>
      <trkpt lat="43.41049" lon="6.79267">
        <ele>3.33</ele>
        <time>2016-11-12T10:04:25Z</time>
      </trkpt>
      <trkpt lat="43.41035" lon="6.79286">
        <ele>2.38</ele>
        <time>2016-11-12T10:04:51Z</time>
      </trkpt>
      <trkpt lat="43.41027" lon="6.79308">
        <ele>-3.82</ele>
        <time>2016-11-12T10:06:09Z</time>
      </trkpt>
      <trkpt lat="43.41018" lon="6.79332">
        <ele>-1.02</ele>
        <time>2016-11-12T10:07:51Z</time>
      </trkpt>
      <trkpt lat="43.41022" lon="6.79356">
        <ele>5.17</ele>
        <time>2016-11-12T10:08:36Z</time>
      </trkpt>
      <trkpt lat="43.41037" lon="6.79371">
        <ele>7.17</ele>
        <time>2016-11-12T10:09:11Z</time>
      </trkpt>
      <trkpt lat="43.41048" lon="6.7939">
        <ele>4.18</ele>
        <time>2016-11-12T10:09:34Z</time>
      </trkpt>
      <trkpt lat="43.41061" lon="6.79409">
        <ele>3.18</ele>
        <time>2016-11-12T10:09:58Z</time>
      </trkpt>
      <trkpt lat="43.41072" lon="6.79429">
        <ele>5.18</ele>
        <time>2016-11-12T10:10:50Z</time>
      </trkpt>
      <trkpt lat="43.41084" lon="6.79448">
        <ele>3.98</ele>
        <time>2016-11-12T10:11:23Z</time>
      </trkpt>
      <trkpt lat="43.411" lon="6.79463">
        <ele>6.98</ele>
        <time>2016-11-12T10:11:49Z</time>
      </trkpt>
      <trkpt lat="43.41085" lon="6.79446">
        <ele>4.23</ele>
        <time>2016-11-12T10:13:08Z</time>
      </trkpt>
      <trkpt lat="43.41071" lon="6.7943">
        <ele>12.33</ele>
        <time>2016-11-12T10:13:25Z</time>
      </trkpt>
      <trkpt lat="43.41063" lon="6.79405">
        <ele>2.14</ele>
        <time>2016-11-12T10:13:53Z</time>
      </trkpt>
      <trkpt lat="43.41081" lon="6.79408">
        <ele>2.02</ele>
        <time>2016-11-12T10:14:11Z</time>
      </trkpt>
      <trkpt lat="43.41099" lon="6.79404">
        <ele>11.17</ele>
        <time>2016-11-12T10:14:57Z</time>
      </trkpt>
      <trkpt lat="43.41116" lon="6.79393">
        <ele>5.22</ele>
        <time>2016-11-12T10:15:21Z</time>
      </trkpt>
      <trkpt lat="43.41135" lon="6.79394">
        <ele>7.62</ele>
        <time>2016-11-12T10:15:41Z</time>
      </trkpt>
      <trkpt lat="43.41153" lon="6.79391">
        <ele>8.14</ele>
        <time>2016-11-12T10:16:12Z</time>
      </trkpt>
      <trkpt lat="43.41171" lon="6.79394">
        <ele>7.34</ele>
        <time>2016-11-12T10:16:37Z</time>
      </trkpt>
      <trkpt lat="43.41188" lon="6.79387">
        <ele>8.01</ele>
        <time>2016-11-12T10:16:53Z</time>
      </trkpt>
      <trkpt lat="43.41206" lon="6.79394">
        <ele>9.14</ele>
        <time>2016-11-12T10:17:10Z</time>
      </trkpt>
      <trkpt lat="43.41222" lon="6.79405">
        <ele>3.98</ele>
        <time>2016-11-12T10:17:36Z</time>
      </trkpt>
      <trkpt lat="43.41236" lon="6.79421">
        <ele>5.97</ele>
        <time>2016-11-12T10:17:54Z</time>
      </trkpt>
      <trkpt lat="43.41251" lon="6.79439">
        <ele>7.62</ele>
        <time>2016-11-12T10:18:28Z</time>
      </trkpt>
      <trkpt lat="43.41262" lon="6.79459">
        <ele>6.37</ele>
        <time>2016-11-12T10:18:50Z</time>
      </trkpt>
      <trkpt lat="43.41275" lon="6.79476">
        <ele>5.98</ele>
        <time>2016-11-12T10:19:17Z</time>
      </trkpt>
      <trkpt lat="43.41284" lon="6.79498">
        <ele>6.18</ele>
        <time>2016-11-12T10:19:40Z</time>
      </trkpt>
      <trkpt lat="43.41298" lon="6.79513">
        <ele>7.14</ele>
        <time>2016-11-12T10:20:14Z</time>
      </trkpt>
      <trkpt lat="43.41315" lon="6.79529">
        <ele>5.26</ele>
        <time>2016-11-12T10:20:40Z</time>
      </trkpt>
      <trkpt lat="43.41332" lon="6.79536">
        <ele>3.17</ele>
        <time>2016-11-12T10:21:04Z</time>
      </trkpt>
      <trkpt lat="43.41344" lon="6.79556">
        <ele>3.21</ele>
        <time>2016-11-12T10:21:19Z</time>
      </trkpt>
      <trkpt lat="43.41356" lon="6.79575">
        <ele>2.56</ele>
        <time>2016-11-12T10:21:39Z</time>
      </trkpt>
      <trkpt lat="43.41357" lon="6.79601">
        <ele>0.22</ele>
        <time>2016-11-12T10:21:57Z</time>
      </trkpt>
      <trkpt lat="43.41356" lon="6.79626">
        <ele>1.17</ele>
        <time>2016-11-12T10:22:16Z</time>
      </trkpt>
      <trkpt lat="43.41359" lon="6.79651">
        <ele>4.02</ele>
        <time>2016-11-12T10:22:33Z</time>
      </trkpt>
      <trkpt lat="43.41362" lon="6.79677">
        <ele>4.41</ele>
        <time>2016-11-12T10:22:46Z</time>
      </trkpt>
      <trkpt lat="43.41368" lon="6.79702">
        <ele>0.22</ele>
        <time>2016-11-12T10:23:00Z</time>
      </trkpt>
      <trkpt lat="43.41381" lon="6.79719">
        <ele>3.73</ele>
        <time>2016-11-12T10:23:24Z</time>
      </trkpt>
      <trkpt lat="43.41381" lon="6.79744">
        <ele>1.41</ele>
        <time>2016-11-12T10:23:36Z</time>
      </trkpt>
      <trkpt lat="43.4139" lon="6.79768">
        <ele>4.97</ele>
        <time>2016-11-12T10:23:55Z</time>
      </trkpt>
      <trkpt lat="43.41396" lon="6.79791">
        <ele>5.18</ele>
        <time>2016-11-12T10:24:16Z</time>
      </trkpt>
      <trkpt lat="43.41394" lon="6.79817">
        <ele>3.38</ele>
        <time>2016-11-12T10:24:37Z</time>
      </trkpt>
      <trkpt lat="43.41392" lon="6.79845">
        <ele>0.18</ele>
        <time>2016-11-12T10:24:54Z</time>
      </trkpt>
      <trkpt lat="43.41384" lon="6.7987">
        <ele>0.97</ele>
        <time>2016-11-12T10:25:09Z</time>
      </trkpt>
      <trkpt lat="43.41371" lon="6.79889">
        <ele>2.18</ele>
        <time>2016-11-12T10:25:24Z</time>
      </trkpt>
      <trkpt lat="43.41356" lon="6.79901">
        <ele>0.17</ele>
        <time>2016-11-12T10:25:44Z</time>
      </trkpt>
      <trkpt lat="43.41338" lon="6.79907">
        <ele>-1.59</ele>
        <time>2016-11-12T10:26:03Z</time>
      </trkpt>
      <trkpt lat="43.41319" lon="6.79913">
        <ele>-0.62</ele>
        <time>2016-11-12T10:26:35Z</time>
      </trkpt>
      <trkpt lat="43.41301" lon="6.79918">
        <ele>-2.99</ele>
        <time>2016-11-12T10:26:57Z</time>
      </trkpt>
      <trkpt lat="43.41286" lon="6.79934">
        <ele>0.14</ele>
        <time>2016-11-12T10:27:15Z</time>
      </trkpt>
      <trkpt lat="43.41283" lon="6.79963">
        <ele>-3.59</ele>
        <time>2016-11-12T10:27:46Z</time>
      </trkpt>
      <trkpt lat="43.41295" lon="6.79981">
        <ele>-4.85</ele>
        <time>2016-11-12T10:28:10Z</time>
      </trkpt>
      <trkpt lat="43.41299" lon="6.80006">
        <ele>-3.78</ele>
        <time>2016-11-12T10:28:26Z</time>
      </trkpt>
      <trkpt lat="43.41304" lon="6.80032">
        <ele>2.93</ele>
        <time>2016-11-12T10:29:11Z</time>
      </trkpt>
      <trkpt lat="43.41312" lon="6.80054">
        <ele>6.36</ele>
        <time>2016-11-12T10:29:38Z</time>
      </trkpt>
      <trkpt lat="43.41309" lon="6.80079">
        <ele>4.97</ele>
        <time>2016-11-12T10:29:59Z</time>
      </trkpt>
      <trkpt lat="43.41304" lon="6.80104">
        <ele>1.38</ele>
        <time>2016-11-12T10:30:18Z</time>
      </trkpt>
      <trkpt lat="43.41296" lon="6.8013">
        <ele>-0.26</ele>
        <time>2016-11-12T10:30:45Z</time>
      </trkpt>
      <trkpt lat="43.41304" lon="6.80155">
        <ele>2.18</ele>
        <time>2016-11-12T10:31:13Z</time>
      </trkpt>
      <trkpt lat="43.41314" lon="6.80176">
        <ele>8.17</ele>
        <time>2016-11-12T10:31:52Z</time>
      </trkpt>
      <trkpt lat="43.4132" lon="6.80201">
        <ele>6.18</ele>
        <time>2016-11-12T10:32:02Z</time>
      </trkpt>
      <trkpt lat="43.41334" lon="6.80217">
        <ele>4.18</ele>
        <time>2016-11-12T10:32:37Z</time>
      </trkpt>
      <trkpt lat="43.41349" lon="6.80234">
        <ele>1.11</ele>
        <time>2016-11-12T10:33:18Z</time>
      </trkpt>
      <trkpt lat="43.41361" lon="6.80252">
        <ele>-1.86</ele>
        <time>2016-11-12T10:33:38Z</time>
      </trkpt>
      <trkpt lat="43.41368" lon="6.80277">
        <ele>-3.63</ele>
        <time>2016-11-12T10:33:57Z</time>
      </trkpt>
      <trkpt lat="43.41365" lon="6.80302">
        <ele>-7.66</ele>
        <time>2016-11-12T10:34:14Z</time>
      </trkpt>
      <trkpt lat="43.41365" lon="6.80328">
        <ele>4.22</ele>
        <time>2016-11-12T10:38:18Z</time>
      </trkpt>
      <trkpt lat="43.41371" lon="6.80354">
        <ele>5.14</ele>
        <time>2016-11-12T10:38:49Z</time>
      </trkpt>
      <trkpt lat="43.41388" lon="6.80366">
        <ele>-0.65</ele>
        <time>2016-11-12T10:39:15Z</time>
      </trkpt>
      <trkpt lat="43.41395" lon="6.80389">
        <ele>-0.63</ele>
        <time>2016-11-12T10:39:32Z</time>
      </trkpt>
      <trkpt lat="43.41409" lon="6.8041">
        <ele>1.38</ele>
        <time>2016-11-12T10:40:01Z</time>
      </trkpt>
      <trkpt lat="43.41412" lon="6.80437">
        <ele>1.93</ele>
        <time>2016-11-12T10:40:14Z</time>
      </trkpt>
      <trkpt lat="43.41414" lon="6.80463">
        <ele>5.22</ele>
        <time>2016-11-12T10:40:36Z</time>
      </trkpt>
      <trkpt lat="43.41416" lon="6.80488">
        <ele>9.02</ele>
        <time>2016-11-12T10:40:55Z</time>
      </trkpt>
      <trkpt lat="43.41421" lon="6.80513">
        <ele>4.26</ele>
        <time>2016-11-12T10:41:20Z</time>
      </trkpt>
      <trkpt lat="43.41425" lon="6.80538">
        <ele>3.13</ele>
        <time>2016-11-12T10:41:40Z</time>
      </trkpt>
      <trkpt lat="43.41433" lon="6.80562">
        <ele>4.17</ele>
        <time>2016-11-12T10:41:59Z</time>
      </trkpt>
      <trkpt lat="43.41442" lon="6.80585">
        <ele>2.14</ele>
        <time>2016-11-12T10:42:14Z</time>
      </trkpt>
      <trkpt lat="43.41455" lon="6.80605">
        <ele>-1.59</ele>
        <time>2016-11-12T10:42:46Z</time>
      </trkpt>
      <trkpt lat="43.41456" lon="6.80632">
        <ele>-2.82</ele>
        <time>2016-11-12T10:43:24Z</time>
      </trkpt>
      <trkpt lat="43.41458" lon="6.80657">
        <ele>-1.01</ele>
        <time>2016-11-12T10:44:01Z</time>
      </trkpt>
      <trkpt lat="43.41442" lon="6.80672">
        <ele>-4.86</ele>
        <time>2016-11-12T10:44:22Z</time>
      </trkpt>
      <trkpt lat="43.41429" lon="6.80691">
        <ele>0.98</ele>
        <time>2016-11-12T10:44:34Z</time>
      </trkpt>
      <trkpt lat="43.41418" lon="6.8071">
        <ele>0.01</ele>
        <time>2016-11-12T10:44:49Z</time>
      </trkpt>
      <trkpt lat="43.41401" lon="6.80723">
        <ele>-4.42</ele>
        <time>2016-11-12T10:45:09Z</time>
      </trkpt>
      <trkpt lat="43.41384" lon="6.80718">
        <ele>-2.84</ele>
        <time>2016-11-12T10:45:20Z</time>
      </trkpt>
      <trkpt lat="43.41369" lon="6.80735">
        <ele>-3.03</ele>
        <time>2016-11-12T10:45:38Z</time>
      </trkpt>
      <trkpt lat="43.4135" lon="6.80734">
        <ele>-0.63</ele>
        <time>2016-11-12T10:45:52Z</time>
      </trkpt>
      <trkpt lat="43.41336" lon="6.80753">
        <ele>-2.02</ele>
        <time>2016-11-12T10:46:14Z</time>
      </trkpt>
      <trkpt lat="43.41323" lon="6.80773">
        <ele>0.18</ele>
        <time>2016-11-12T10:46:33Z</time>
      </trkpt>
      <trkpt lat="43.41314" lon="6.80796">
        <ele>4.14</ele>
        <time>2016-11-12T10:46:50Z</time>
      </trkpt>
      <trkpt lat="43.41317" lon="6.80823">
        <ele>5.5</ele>
        <time>2016-11-12T10:47:24Z</time>
      </trkpt>
      <trkpt lat="43.4132" lon="6.80848">
        <ele>1.18</ele>
        <time>2016-11-12T10:47:41Z</time>
      </trkpt>
      <trkpt lat="43.41324" lon="6.80873">
        <ele>2.22</ele>
        <time>2016-11-12T10:48:01Z</time>
      </trkpt>
      <trkpt lat="43.41322" lon="6.80898">
        <ele>1.98</ele>
        <time>2016-11-12T10:48:18Z</time>
      </trkpt>
      <trkpt lat="43.41321" lon="6.80923">
        <ele>-0.66</ele>
        <time>2016-11-12T10:48:40Z</time>
      </trkpt>
      <trkpt lat="43.41321" lon="6.80949">
        <ele>4.09</ele>
        <time>2016-11-12T10:49:00Z</time>
      </trkpt>
      <trkpt lat="43.41323" lon="6.80975">
        <ele>2.21</ele>
        <time>2016-11-12T10:49:19Z</time>
      </trkpt>
      <trkpt lat="43.41328" lon="6.81001">
        <ele>-1.59</ele>
        <time>2016-11-12T10:49:33Z</time>
      </trkpt>
      <trkpt lat="43.41339" lon="6.81022">
        <ele>3.37</ele>
        <time>2016-11-12T10:49:52Z</time>
      </trkpt>
      <trkpt lat="43.41349" lon="6.81044">
        <ele>1.02</ele>
        <time>2016-11-12T10:50:11Z</time>
      </trkpt>
      <trkpt lat="43.4136" lon="6.81065">
        <ele>-1.78</ele>
        <time>2016-11-12T10:50:28Z</time>
      </trkpt>
      <trkpt lat="43.41375" lon="6.8108">
        <ele>1.13</ele>
        <time>2016-11-12T10:50:47Z</time>
      </trkpt>
      <trkpt lat="43.41388" lon="6.81099">
        <ele>-0.42</ele>
        <time>2016-11-12T10:51:06Z</time>
      </trkpt>
      <trkpt lat="43.41391" lon="6.81124">
        <ele>3.94</ele>
        <time>2016-11-12T10:51:25Z</time>
      </trkpt>
      <trkpt lat="43.41396" lon="6.81148">
        <ele>3.02</ele>
        <time>2016-11-12T10:51:38Z</time>
      </trkpt>
      <trkpt lat="43.41399" lon="6.81173">
        <ele>2.3</ele>
        <time>2016-11-12T10:51:52Z</time>
      </trkpt>
      <trkpt lat="43.41402" lon="6.81198">
        <ele>4.15</ele>
        <time>2016-11-12T10:52:11Z</time>
      </trkpt>
      <trkpt lat="43.41401" lon="6.81223">
        <ele>1.14</ele>
        <time>2016-11-12T10:52:47Z</time>
      </trkpt>
      <trkpt lat="43.41409" lon="6.81246">
        <ele>0.25</ele>
        <time>2016-11-12T10:53:08Z</time>
      </trkpt>
      <trkpt lat="43.4142" lon="6.81266">
        <ele>-0.86</ele>
        <time>2016-11-12T10:53:35Z</time>
      </trkpt>
      <trkpt lat="43.41438" lon="6.81274">
        <ele>2.21</ele>
        <time>2016-11-12T10:53:55Z</time>
      </trkpt>
      <trkpt lat="43.41455" lon="6.81282">
        <ele>4.38</ele>
        <time>2016-11-12T10:54:22Z</time>
      </trkpt>
      <trkpt lat="43.41471" lon="6.81295">
        <ele>6.34</ele>
        <time>2016-11-12T10:54:43Z</time>
      </trkpt>
      <trkpt lat="43.41487" lon="6.81307">
        <ele>2.43</ele>
        <time>2016-11-12T10:55:07Z</time>
      </trkpt>
      <trkpt lat="43.41505" lon="6.81307">
        <ele>4.79</ele>
        <time>2016-11-12T10:55:25Z</time>
      </trkpt>
      <trkpt lat="43.41513" lon="6.81332">
        <ele>9.29</ele>
        <time>2016-11-12T10:56:07Z</time>
      </trkpt>
      <trkpt lat="43.41517" lon="6.81356">
        <ele>5.42</ele>
        <time>2016-11-12T10:56:31Z</time>
      </trkpt>
      <trkpt lat="43.41529" lon="6.81375">
        <ele>4.17</ele>
        <time>2016-11-12T10:56:50Z</time>
      </trkpt>
      <trkpt lat="43.41541" lon="6.81394">
        <ele>1.02</ele>
        <time>2016-11-12T10:57:14Z</time>
      </trkpt>
      <trkpt lat="43.41558" lon="6.81404">
        <ele>4.41</ele>
        <time>2016-11-12T10:57:44Z</time>
      </trkpt>
      <trkpt lat="43.41571" lon="6.81423">
        <ele>2.21</ele>
        <time>2016-11-12T10:58:01Z</time>
      </trkpt>
      <trkpt lat="43.41585" lon="6.81439">
        <ele>-2.66</ele>
        <time>2016-11-12T10:58:20Z</time>
      </trkpt>
      <trkpt lat="43.41596" lon="6.81466">
        <ele>-4.39</ele>
        <time>2016-11-12T10:58:55Z</time>
      </trkpt>
      <trkpt lat="43.41584" lon="6.81445">
        <ele>-0.91</ele>
        <time>2016-11-12T10:59:01Z</time>
      </trkpt>
      <trkpt lat="43.41569" lon="6.81457">
        <ele>-0.77</ele>
        <time>2016-11-12T10:59:34Z</time>
      </trkpt>
      <trkpt lat="43.41562" lon="6.8148">
        <ele>1.18</ele>
        <time>2016-11-12T10:59:51Z</time>
      </trkpt>
      <trkpt lat="43.41548" lon="6.81497">
        <ele>0.13</ele>
        <time>2016-11-12T11:00:18Z</time>
      </trkpt>
      <trkpt lat="43.41538" lon="6.81518">
        <ele>-1.83</ele>
        <time>2016-11-12T11:02:08Z</time>
      </trkpt>
      <trkpt lat="43.41544" lon="6.81542">
        <ele>3.1</ele>
        <time>2016-11-12T11:02:36Z</time>
      </trkpt>
      <trkpt lat="43.41557" lon="6.81559">
        <ele>-3.6</ele>
        <time>2016-11-12T11:02:54Z</time>
      </trkpt>
      <trkpt lat="43.4157" lon="6.81578">
        <ele>-7.82</ele>
        <time>2016-11-12T11:03:13Z</time>
      </trkpt>
      <trkpt lat="43.41583" lon="6.81596">
        <ele>-5.02</ele>
        <time>2016-11-12T11:03:34Z</time>
      </trkpt>
      <trkpt lat="43.41588" lon="6.8162">
        <ele>1.12</ele>
        <time>2016-11-12T11:03:49Z</time>
      </trkpt>
      <trkpt lat="43.41581" lon="6.81646">
        <ele>-0.98</ele>
        <time>2016-11-12T11:04:42Z</time>
      </trkpt>
      <trkpt lat="43.41568" lon="6.81664">
        <ele>1.21</ele>
        <time>2016-11-12T11:04:57Z</time>
      </trkpt>
      <trkpt lat="43.41551" lon="6.81672">
        <ele>1.53</ele>
        <time>2016-11-12T11:05:22Z</time>
      </trkpt>
      <trkpt lat="43.41559" lon="6.81695">
        <ele>-4.82</ele>
        <time>2016-11-12T11:05:53Z</time>
      </trkpt>
      <trkpt lat="43.41567" lon="6.81718">
        <ele>-1.83</ele>
        <time>2016-11-12T11:06:12Z</time>
      </trkpt>
      <trkpt lat="43.4158" lon="6.81736">
        <ele>-4.59</ele>
        <time>2016-11-12T11:06:28Z</time>
      </trkpt>
      <trkpt lat="43.41578" lon="6.81762">
        <ele>0.3</ele>
        <time>2016-11-12T11:06:39Z</time>
      </trkpt>
      <trkpt lat="43.41583" lon="6.81788">
        <ele>0.57</ele>
        <time>2016-11-12T11:07:00Z</time>
      </trkpt>
      <trkpt lat="43.41594" lon="6.81809">
        <ele>2.56</ele>
        <time>2016-11-12T11:07:32Z</time>
      </trkpt>
      <trkpt lat="43.41603" lon="6.81831">
        <ele>-0.67</ele>
        <time>2016-11-12T11:07:55Z</time>
      </trkpt>
      <trkpt lat="43.41604" lon="6.81858">
        <ele>-0.82</ele>
        <time>2016-11-12T11:08:15Z</time>
      </trkpt>
      <trkpt lat="43.41599" lon="6.81882">
        <ele>4.17</ele>
        <time>2016-11-12T11:09:02Z</time>
      </trkpt>
      <trkpt lat="43.416" lon="6.81907">
        <ele>-2.78</ele>
        <time>2016-11-12T11:10:13Z</time>
      </trkpt>
      <trkpt lat="43.41605" lon="6.81931">
        <ele>-3.78</ele>
        <time>2016-11-12T11:10:28Z</time>
      </trkpt>
      <trkpt lat="43.41604" lon="6.81957">
        <ele>-2.41</ele>
        <time>2016-11-12T11:11:52Z</time>
      </trkpt>
      <trkpt lat="43.41616" lon="6.81977">
        <ele>4.1</ele>
        <time>2016-11-12T11:12:18Z</time>
      </trkpt>
      <trkpt lat="43.41604" lon="6.81998">
        <ele>5.05</ele>
        <time>2016-11-12T11:12:39Z</time>
      </trkpt>
      <trkpt lat="43.41603" lon="6.82022">
        <ele>-2.04</ele>
        <time>2016-11-12T11:13:34Z</time>
      </trkpt>
      <trkpt lat="43.41605" lon="6.82048">
        <ele>-3.87</ele>
        <time>2016-11-12T11:14:04Z</time>
      </trkpt>
      <trkpt lat="43.41593" lon="6.82067">
        <ele>-0.83</ele>
        <time>2016-11-12T11:14:31Z</time>
      </trkpt>
      <trkpt lat="43.41592" lon="6.82093">
        <ele>6.02</ele>
        <time>2016-11-12T11:14:56Z</time>
      </trkpt>
      <trkpt lat="43.41607" lon="6.82108">
        <ele>0.21</ele>
        <time>2016-11-12T11:15:26Z</time>
      </trkpt>
      <trkpt lat="43.41618" lon="6.82128">
        <ele>-0.02</ele>
        <time>2016-11-12T11:15:46Z</time>
      </trkpt>
      <trkpt lat="43.41633" lon="6.82143">
        <ele>-0.83</ele>
        <time>2016-11-12T11:16:13Z</time>
      </trkpt>
      <trkpt lat="43.41637" lon="6.8217">
        <ele>2.18</ele>
        <time>2016-11-12T11:17:14Z</time>
      </trkpt>
      <trkpt lat="43.41642" lon="6.82194">
        <ele>1.9</ele>
        <time>2016-11-12T11:17:23Z</time>
      </trkpt>
      <trkpt lat="43.41658" lon="6.82211">
        <ele>-1.07</ele>
        <time>2016-11-12T11:17:42Z</time>
      </trkpt>
      <trkpt lat="43.41676" lon="6.82216">
        <ele>-0.13</ele>
        <time>2016-11-12T11:18:15Z</time>
      </trkpt>
      <trkpt lat="43.41685" lon="6.82241">
        <ele>-0.62</ele>
        <time>2016-11-12T11:18:36Z</time>
      </trkpt>
      <trkpt lat="43.41698" lon="6.82259">
        <ele>-2.02</ele>
        <time>2016-11-12T11:19:12Z</time>
      </trkpt>
      <trkpt lat="43.41715" lon="6.82252">
        <ele>-1.07</ele>
        <time>2016-11-12T11:19:27Z</time>
      </trkpt>
      <trkpt lat="43.41733" lon="6.82247">
        <ele>-7.78</ele>
        <time>2016-11-12T11:19:48Z</time>
      </trkpt>
      <trkpt lat="43.4175" lon="6.82264">
        <ele>-1.86</ele>
        <time>2016-11-12T11:20:06Z</time>
      </trkpt>
      <trkpt lat="43.41755" lon="6.8229">
        <ele>-0.82</ele>
        <time>2016-11-12T11:20:26Z</time>
      </trkpt>
      <trkpt lat="43.41767" lon="6.82309">
        <ele>2.14</ele>
        <time>2016-11-12T11:21:49Z</time>
      </trkpt>
      <trkpt lat="43.41765" lon="6.82334">
        <ele>-2.85</ele>
        <time>2016-11-12T11:22:53Z</time>
      </trkpt>
      <trkpt lat="43.4176" lon="6.8236">
        <ele>1.21</ele>
        <time>2016-11-12T11:23:15Z</time>
      </trkpt>
      <trkpt lat="43.41757" lon="6.82384">
        <ele>-7.24</ele>
        <time>2016-11-12T11:23:49Z</time>
      </trkpt>
      <trkpt lat="43.4174" lon="6.82395">
        <ele>-2.01</ele>
        <time>2016-11-12T11:24:28Z</time>
      </trkpt>
      <trkpt lat="43.41735" lon="6.82419">
        <ele>-4.82</ele>
        <time>2016-11-12T11:25:20Z</time>
      </trkpt>
      <trkpt lat="43.41735" lon="6.82445">
        <ele>0.18</ele>
        <time>2016-11-12T11:25:44Z</time>
      </trkpt>
      <trkpt lat="43.41718" lon="6.82452">
        <ele>1.01</ele>
        <time>2016-11-12T11:26:25Z</time>
      </trkpt>
      <trkpt lat="43.4172" lon="6.82427">
        <ele>0.99</ele>
        <time>2016-11-12T11:26:43Z</time>
      </trkpt>
      <trkpt lat="43.4172" lon="6.82452">
        <ele>-1.26</ele>
        <time>2016-11-12T11:28:16Z</time>
      </trkpt>
      <trkpt lat="43.41726" lon="6.82477">
        <ele>-0.99</ele>
        <time>2016-11-12T11:28:43Z</time>
      </trkpt>
      <trkpt lat="43.41739" lon="6.82496">
        <ele>-1.86</ele>
        <time>2016-11-12T11:29:12Z</time>
      </trkpt>
      <trkpt lat="43.4173" lon="6.82517">
        <ele>-0.87</ele>
        <time>2016-11-12T11:29:53Z</time>
      </trkpt>
      <trkpt lat="43.41735" lon="6.82541">
        <ele>1.18</ele>
        <time>2016-11-12T11:30:27Z</time>
      </trkpt>
      <trkpt lat="43.41739" lon="6.82566">
        <ele>4.16</ele>
        <time>2016-11-12T11:30:43Z</time>
      </trkpt>
      <trkpt lat="43.41744" lon="6.82589">
        <ele>-1.63</ele>
        <time>2016-11-12T11:31:12Z</time>
      </trkpt>
      <trkpt lat="43.41751" lon="6.82613">
        <ele>-7.22</ele>
        <time>2016-11-12T11:31:41Z</time>
      </trkpt>
      <trkpt lat="43.4175" lon="6.82638">
        <ele>-2.67</ele>
        <time>2016-11-12T11:32:06Z</time>
      </trkpt>
      <trkpt lat="43.41763" lon="6.82655">
        <ele>1.37</ele>
        <time>2016-11-12T11:32:37Z</time>
      </trkpt>
      <trkpt lat="43.41753" lon="6.82677">
        <ele>6.7</ele>
        <time>2016-11-12T11:32:47Z</time>
      </trkpt>
      <trkpt lat="43.4176" lon="6.82701">
        <ele>5.17</ele>
        <time>2016-11-12T11:33:17Z</time>
      </trkpt>
      <trkpt lat="43.41763" lon="6.82725">
        <ele>-0.79</ele>
        <time>2016-11-12T11:35:43Z</time>
      </trkpt>
      <trkpt lat="43.41776" lon="6.82746">
        <ele>2.18</ele>
        <time>2016-11-12T11:36:23Z</time>
      </trkpt>
      <trkpt lat="43.41788" lon="6.82765">
        <ele>-0.82</ele>
        <time>2016-11-12T11:37:04Z</time>
      </trkpt>
      <trkpt lat="43.41802" lon="6.82781">
        <ele>-3.81</ele>
        <time>2016-11-12T11:37:23Z</time>
      </trkpt>
      <trkpt lat="43.41816" lon="6.82797">
        <ele>-3.98</ele>
        <time>2016-11-12T11:37:49Z</time>
      </trkpt>
      <trkpt lat="43.41821" lon="6.82821">
        <ele>-1.83</ele>
        <time>2016-11-12T11:38:11Z</time>
      </trkpt>
      <trkpt lat="43.41818" lon="6.82846">
        <ele>1.98</ele>
        <time>2016-11-12T11:38:31Z</time>
      </trkpt>
      <trkpt lat="43.41829" lon="6.82865">
        <ele>2.37</ele>
        <time>2016-11-12T11:39:11Z</time>
      </trkpt>
      <trkpt lat="43.41844" lon="6.82881">
        <ele>0.15</ele>
        <time>2016-11-12T11:39:36Z</time>
      </trkpt>
      <trkpt lat="43.41834" lon="6.82904">
        <ele>3.17</ele>
        <time>2016-11-12T11:39:42Z</time>
      </trkpt>
      <trkpt lat="43.41852" lon="6.82898">
        <ele>0.38</ele>
        <time>2016-11-12T11:39:51Z</time>
      </trkpt>
      <trkpt lat="43.41856" lon="6.82924">
        <ele>5.97</ele>
        <time>2016-11-12T11:40:21Z</time>
      </trkpt>
      <trkpt lat="43.41858" lon="6.8295">
        <ele>0.42</ele>
        <time>2016-11-12T11:40:53Z</time>
      </trkpt>
      <trkpt lat="43.41853" lon="6.82975">
        <ele>-2.86</ele>
        <time>2016-11-12T11:41:07Z</time>
      </trkpt>
      <trkpt lat="43.41838" lon="6.82987">
        <ele>2.17</ele>
        <time>2016-11-12T11:41:38Z</time>
      </trkpt>
      <trkpt lat="43.41827" lon="6.83009">
        <ele>-0.83</ele>
        <time>2016-11-12T11:42:08Z</time>
      </trkpt>
      <trkpt lat="43.41824" lon="6.83034">
        <ele>0.22</ele>
        <time>2016-11-12T11:42:31Z</time>
      </trkpt>
      <trkpt lat="43.41821" lon="6.83059">
        <ele>0.14</ele>
        <time>2016-11-12T11:42:45Z</time>
      </trkpt>
      <trkpt lat="43.41812" lon="6.83081">
        <ele>-1.82</ele>
        <time>2016-11-12T11:43:03Z</time>
      </trkpt>
      <trkpt lat="43.41796" lon="6.83094">
        <ele>-0.66</ele>
        <time>2016-11-12T11:43:28Z</time>
      </trkpt>
      <trkpt lat="43.41778" lon="6.83097">
        <ele>0.98</ele>
        <time>2016-11-12T11:43:53Z</time>
      </trkpt>
      <trkpt lat="43.41766" lon="6.83117">
        <ele>2.93</ele>
        <time>2016-11-12T11:44:38Z</time>
      </trkpt>
      <trkpt lat="43.41764" lon="6.83142">
        <ele>3.41</ele>
        <time>2016-11-12T11:45:03Z</time>
      </trkpt>
      <trkpt lat="43.41758" lon="6.83166">
        <ele>4.94</ele>
        <time>2016-11-12T11:45:52Z</time>
      </trkpt>
      <trkpt lat="43.41765" lon="6.83192">
        <ele>7.78</ele>
        <time>2016-11-12T11:46:18Z</time>
      </trkpt>
      <trkpt lat="43.4176" lon="6.83217">
        <ele>4.18</ele>
        <time>2016-11-12T11:46:38Z</time>
      </trkpt>
      <trkpt lat="43.41754" lon="6.8324">
        <ele>6.22</ele>
        <time>2016-11-12T11:47:27Z</time>
      </trkpt>
      <trkpt lat="43.41737" lon="6.83251">
        <ele>2.21</ele>
        <time>2016-11-12T11:47:58Z</time>
      </trkpt>
      <trkpt lat="43.41726" lon="6.83273">
        <ele>5.98</ele>
        <time>2016-11-12T11:48:23Z</time>
      </trkpt>
      <trkpt lat="43.41716" lon="6.83293">
        <ele>0.15</ele>
        <time>2016-11-12T11:48:56Z</time>
      </trkpt>
      <trkpt lat="43.41702" lon="6.83308">
        <ele>1.17</ele>
        <time>2016-11-12T11:49:47Z</time>
      </trkpt>
      <trkpt lat="43.41717" lon="6.83322">
        <ele>5.01</ele>
        <time>2016-11-12T11:56:12Z</time>
      </trkpt>
      <trkpt lat="43.41717" lon="6.83355">
        <ele>5.38</ele>
        <time>2016-11-12T11:56:35Z</time>
      </trkpt>
      <trkpt lat="43.41702" lon="6.83372">
        <ele>10.17</ele>
        <time>2016-11-12T11:56:54Z</time>
      </trkpt>
      <trkpt lat="43.41689" lon="6.83396">
        <ele>8.8</ele>
        <time>2016-11-12T11:57:14Z</time>
      </trkpt>
      <trkpt lat="43.41684" lon="6.83421">
        <ele>12.01</ele>
        <time>2016-11-12T11:57:28Z</time>
      </trkpt>
      <trkpt lat="43.4168" lon="6.83445">
        <ele>16.21</ele>
        <time>2016-11-12T11:57:43Z</time>
      </trkpt>
      <trkpt lat="43.41672" lon="6.8347">
        <ele>16.21</ele>
        <time>2016-11-12T11:57:59Z</time>
      </trkpt>
      <trkpt lat="43.41669" lon="6.83496">
        <ele>9.34</ele>
        <time>2016-11-12T11:58:14Z</time>
      </trkpt>
      <trkpt lat="43.41673" lon="6.83521">
        <ele>12.12</ele>
        <time>2016-11-12T11:58:28Z</time>
      </trkpt>
      <trkpt lat="43.41679" lon="6.83548">
        <ele>11.17</ele>
        <time>2016-11-12T11:58:43Z</time>
      </trkpt>
      <trkpt lat="43.41683" lon="6.83573">
        <ele>12.01</ele>
        <time>2016-11-12T11:58:57Z</time>
      </trkpt>
      <trkpt lat="43.41689" lon="6.83596">
        <ele>13.21</ele>
        <time>2016-11-12T11:59:12Z</time>
      </trkpt>
      <trkpt lat="43.41691" lon="6.83621">
        <ele>12.18</ele>
        <time>2016-11-12T11:59:28Z</time>
      </trkpt>
      <trkpt lat="43.41695" lon="6.83646">
        <ele>12.17</ele>
        <time>2016-11-12T11:59:44Z</time>
      </trkpt>
      <trkpt lat="43.41694" lon="6.83674">
        <ele>10.22</ele>
        <time>2016-11-12T11:59:58Z</time>
      </trkpt>
      <trkpt lat="43.41698" lon="6.83699">
        <ele>10.18</ele>
        <time>2016-11-12T12:00:15Z</time>
      </trkpt>
      <trkpt lat="43.41702" lon="6.83724">
        <ele>7.98</ele>
        <time>2016-11-12T12:00:28Z</time>
      </trkpt>
      <trkpt lat="43.41701" lon="6.83751">
        <ele>8.86</ele>
        <time>2016-11-12T12:00:46Z</time>
      </trkpt>
      <trkpt lat="43.417" lon="6.83777">
        <ele>6.94</ele>
        <time>2016-11-12T12:01:00Z</time>
      </trkpt>
      <trkpt lat="43.41702" lon="6.83805">
        <ele>7.18</ele>
        <time>2016-11-12T12:01:15Z</time>
      </trkpt>
      <trkpt lat="43.41707" lon="6.8383">
        <ele>7.22</ele>
        <time>2016-11-12T12:01:30Z</time>
      </trkpt>
      <trkpt lat="43.41709" lon="6.83855">
        <ele>9.94</ele>
        <time>2016-11-12T12:01:43Z</time>
      </trkpt>
      <trkpt lat="43.41707" lon="6.8388">
        <ele>10.41</ele>
        <time>2016-11-12T12:01:54Z</time>
      </trkpt>
      <trkpt lat="43.41709" lon="6.83907">
        <ele>9.37</ele>
        <time>2016-11-12T12:02:13Z</time>
      </trkpt>
      <trkpt lat="43.41711" lon="6.83932">
        <ele>9.97</ele>
        <time>2016-11-12T12:02:30Z</time>
      </trkpt>
      <trkpt lat="43.4173" lon="6.83942">
        <ele>15.78</ele>
        <time>2016-11-12T12:03:25Z</time>
      </trkpt>
      <trkpt lat="43.41745" lon="6.8396">
        <ele>11.62</ele>
        <time>2016-11-12T12:03:43Z</time>
      </trkpt>
      <trkpt lat="43.41761" lon="6.83974">
        <ele>10.61</ele>
        <time>2016-11-12T12:04:23Z</time>
      </trkpt>
      <trkpt lat="43.4176" lon="6.84002">
        <ele>16.17</ele>
        <time>2016-11-12T12:05:24Z</time>
      </trkpt>
      <trkpt lat="43.41761" lon="6.8403">
        <ele>17.62</ele>
        <time>2016-11-12T12:05:47Z</time>
      </trkpt>
      <trkpt lat="43.41759" lon="6.84059">
        <ele>23.97</ele>
        <time>2016-11-12T12:06:01Z</time>
      </trkpt>
      <trkpt lat="43.41764" lon="6.84084">
        <ele>23.61</ele>
        <time>2016-11-12T12:06:17Z</time>
      </trkpt>
      <trkpt lat="43.4177" lon="6.84108">
        <ele>22.21</ele>
        <time>2016-11-12T12:06:35Z</time>
      </trkpt>
      <trkpt lat="43.41778" lon="6.84135">
        <ele>21.77</ele>
        <time>2016-11-12T12:06:49Z</time>
      </trkpt>
      <trkpt lat="43.41781" lon="6.8416">
        <ele>20.01</ele>
        <time>2016-11-12T12:07:04Z</time>
      </trkpt>
      <trkpt lat="43.41787" lon="6.84183">
        <ele>17.34</ele>
        <time>2016-11-12T12:07:21Z</time>
      </trkpt>
      <trkpt lat="43.41787" lon="6.8421">
        <ele>18.21</ele>
        <time>2016-11-12T12:07:36Z</time>
      </trkpt>
      <trkpt lat="43.41791" lon="6.84235">
        <ele>20.14</ele>
        <time>2016-11-12T12:07:50Z</time>
      </trkpt>
      <trkpt lat="43.41795" lon="6.84259">
        <ele>19.22</ele>
        <time>2016-11-12T12:08:09Z</time>
      </trkpt>
      <trkpt lat="43.41793" lon="6.84284">
        <ele>19.54</ele>
        <time>2016-11-12T12:08:23Z</time>
      </trkpt>
      <trkpt lat="43.41797" lon="6.84311">
        <ele>13.18</ele>
        <time>2016-11-12T12:08:42Z</time>
      </trkpt>
      <trkpt lat="43.41799" lon="6.84336">
        <ele>16.36</ele>
        <time>2016-11-12T12:08:56Z</time>
      </trkpt>
      <trkpt lat="43.41803" lon="6.84361">
        <ele>17.22</ele>
        <time>2016-11-12T12:09:14Z</time>
      </trkpt>
      <trkpt lat="43.41809" lon="6.84386">
        <ele>18.94</ele>
        <time>2016-11-12T12:09:31Z</time>
      </trkpt>
      <trkpt lat="43.41815" lon="6.84411">
        <ele>19.38</ele>
        <time>2016-11-12T12:09:47Z</time>
      </trkpt>
      <trkpt lat="43.41819" lon="6.84437">
        <ele>18.14</ele>
        <time>2016-11-12T12:10:02Z</time>
      </trkpt>
      <trkpt lat="43.41826" lon="6.84461">
        <ele>18.37</ele>
        <time>2016-11-12T12:10:19Z</time>
      </trkpt>
      <trkpt lat="43.41825" lon="6.84486">
        <ele>19.38</ele>
        <time>2016-11-12T12:10:36Z</time>
      </trkpt>
      <trkpt lat="43.41823" lon="6.84511">
        <ele>16.8</ele>
        <time>2016-11-12T12:10:56Z</time>
      </trkpt>
      <trkpt lat="43.41818" lon="6.84535">
        <ele>14.02</ele>
        <time>2016-11-12T12:11:27Z</time>
      </trkpt>
      <trkpt lat="43.41817" lon="6.8456">
        <ele>13.37</ele>
        <time>2016-11-12T12:12:17Z</time>
      </trkpt>
      <trkpt lat="43.41817" lon="6.84586">
        <ele>10.94</ele>
        <time>2016-11-12T12:12:48Z</time>
      </trkpt>
      <trkpt lat="43.41785" lon="6.8458">
        <ele>10.37</ele>
        <time>2016-11-12T12:14:04Z</time>
      </trkpt>
      <trkpt lat="43.41765" lon="6.84585">
        <ele>12.18</ele>
        <time>2016-11-12T12:14:36Z</time>
      </trkpt>
      <trkpt lat="43.41747" lon="6.84574">
        <ele>15.99</ele>
        <time>2016-11-12T12:14:46Z</time>
      </trkpt>
      <trkpt lat="43.41731" lon="6.84563">
        <ele>14.18</ele>
        <time>2016-11-12T12:15:00Z</time>
      </trkpt>
      <trkpt lat="43.4172" lon="6.84543">
        <ele>13.13</ele>
        <time>2016-11-12T12:15:20Z</time>
      </trkpt>
      <trkpt lat="43.41702" lon="6.8454">
        <ele>6.38</ele>
        <time>2016-11-12T12:16:05Z</time>
      </trkpt>
      <trkpt lat="43.41682" lon="6.84541">
        <ele>9.42</ele>
        <time>2016-11-12T12:16:22Z</time>
      </trkpt>
      <trkpt lat="43.41663" lon="6.84539">
        <ele>6.34</ele>
        <time>2016-11-12T12:17:05Z</time>
      </trkpt>
      <trkpt lat="43.41645" lon="6.84536">
        <ele>-1.59</ele>
        <time>2016-11-12T12:17:17Z</time>
      </trkpt>
      <trkpt lat="43.4163" lon="6.84517">
        <ele>-1.86</ele>
        <time>2016-11-12T12:17:37Z</time>
      </trkpt>
      <trkpt lat="43.41619" lon="6.84498">
        <ele>-2.58</ele>
        <time>2016-11-12T12:17:52Z</time>
      </trkpt>
      <trkpt lat="43.41613" lon="6.84473">
        <ele>2.17</ele>
        <time>2016-11-12T12:18:15Z</time>
      </trkpt>
      <trkpt lat="43.41624" lon="6.84452">
        <ele>3.14</ele>
        <time>2016-11-12T12:18:32Z</time>
      </trkpt>
      <trkpt lat="43.41635" lon="6.84432">
        <ele>3.15</ele>
        <time>2016-11-12T12:18:55Z</time>
      </trkpt>
      <trkpt lat="43.41619" lon="6.84421">
        <ele>0.18</ele>
        <time>2016-11-12T12:21:10Z</time>
      </trkpt>
      <trkpt lat="43.41609" lon="6.84444">
        <ele>1.01</ele>
        <time>2016-11-12T13:31:12Z</time>
      </trkpt>
      <trkpt lat="43.41602" lon="6.84467">
        <ele>-1.66</ele>
        <time>2016-11-12T13:31:56Z</time>
      </trkpt>
      <trkpt lat="43.41597" lon="6.84491">
        <ele>0.22</ele>
        <time>2016-11-12T13:32:15Z</time>
      </trkpt>
      <trkpt lat="43.41592" lon="6.84515">
        <ele>0.18</ele>
        <time>2016-11-12T13:32:44Z</time>
      </trkpt>
      <trkpt lat="43.41582" lon="6.84537">
        <ele>1.14</ele>
        <time>2016-11-12T13:33:06Z</time>
      </trkpt>
      <trkpt lat="43.41569" lon="6.84555">
        <ele>-0.82</ele>
        <time>2016-11-12T13:33:39Z</time>
      </trkpt>
      <trkpt lat="43.41558" lon="6.84575">
        <ele>4.18</ele>
        <time>2016-11-12T13:34:15Z</time>
      </trkpt>
      <trkpt lat="43.41542" lon="6.84587">
        <ele>0.6</ele>
        <time>2016-11-12T13:34:37Z</time>
      </trkpt>
      <trkpt lat="43.41531" lon="6.84608">
        <ele>-0.82</ele>
        <time>2016-11-12T13:35:30Z</time>
      </trkpt>
      <trkpt lat="43.41519" lon="6.84627">
        <ele>0.18</ele>
        <time>2016-11-12T13:35:51Z</time>
      </trkpt>
      <trkpt lat="43.41507" lon="6.84647">
        <ele>4.53</ele>
        <time>2016-11-12T13:36:12Z</time>
      </trkpt>
      <trkpt lat="43.41499" lon="6.8467">
        <ele>7.18</ele>
        <time>2016-11-12T13:36:47Z</time>
      </trkpt>
      <trkpt lat="43.41493" lon="6.84695">
        <ele>3.14</ele>
        <time>2016-11-12T13:37:08Z</time>
      </trkpt>
      <trkpt lat="43.4148" lon="6.84712">
        <ele>5.54</ele>
        <time>2016-11-12T13:37:52Z</time>
      </trkpt>
      <trkpt lat="43.41464" lon="6.84728">
        <ele>2.18</ele>
        <time>2016-11-12T13:38:26Z</time>
      </trkpt>
      <trkpt lat="43.41462" lon="6.84754">
        <ele>-5.52</ele>
        <time>2016-11-12T13:39:12Z</time>
      </trkpt>
      <trkpt lat="43.41459" lon="6.84779">
        <ele>-3.86</ele>
        <time>2016-11-12T13:39:37Z</time>
      </trkpt>
      <trkpt lat="43.4147" lon="6.848">
        <ele>-8.02</ele>
        <time>2016-11-12T13:40:00Z</time>
      </trkpt>
      <trkpt lat="43.41465" lon="6.84824">
        <ele>-5.74</ele>
        <time>2016-11-12T13:40:20Z</time>
      </trkpt>
      <trkpt lat="43.41448" lon="6.84834">
        <ele>-1.01</ele>
        <time>2016-11-12T13:42:30Z</time>
      </trkpt>
      <trkpt lat="43.41433" lon="6.84848">
        <ele>-4.42</ele>
        <time>2016-11-12T13:43:28Z</time>
      </trkpt>
      <trkpt lat="43.41418" lon="6.84863">
        <ele>-6.83</ele>
        <time>2016-11-12T13:45:00Z</time>
      </trkpt>
      <trkpt lat="43.41428" lon="6.84887">
        <ele>-6.85</ele>
        <time>2016-11-12T13:46:32Z</time>
      </trkpt>
      <trkpt lat="43.4144" lon="6.84912">
        <ele>8.18</ele>
        <time>2016-11-12T13:47:11Z</time>
      </trkpt>
      <trkpt lat="43.41444" lon="6.84938">
        <ele>6.53</ele>
        <time>2016-11-12T13:47:21Z</time>
      </trkpt>
      <trkpt lat="43.41458" lon="6.84955">
        <ele>14.94</ele>
        <time>2016-11-12T13:47:54Z</time>
      </trkpt>
      <trkpt lat="43.41441" lon="6.84967">
        <ele>10.5</ele>
        <time>2016-11-12T13:49:18Z</time>
      </trkpt>
      <trkpt lat="43.41422" lon="6.84966">
        <ele>14.13</ele>
        <time>2016-11-12T13:49:44Z</time>
      </trkpt>
      <trkpt lat="43.41407" lon="6.8498">
        <ele>9.39</ele>
        <time>2016-11-12T13:49:58Z</time>
      </trkpt>
      <trkpt lat="43.41388" lon="6.84976">
        <ele>14.77</ele>
        <time>2016-11-12T13:50:14Z</time>
      </trkpt>
      <trkpt lat="43.4137" lon="6.84982">
        <ele>21.13</ele>
        <time>2016-11-12T13:50:36Z</time>
      </trkpt>
      <trkpt lat="43.41352" lon="6.84986">
        <ele>21.17</ele>
        <time>2016-11-12T13:50:59Z</time>
      </trkpt>
      <trkpt lat="43.41343" lon="6.85008">
        <ele>25.9</ele>
        <time>2016-11-12T13:51:49Z</time>
      </trkpt>
      <trkpt lat="43.4133" lon="6.85026">
        <ele>21.81</ele>
        <time>2016-11-12T13:52:08Z</time>
      </trkpt>
      <trkpt lat="43.41313" lon="6.85038">
        <ele>22.94</ele>
        <time>2016-11-12T13:52:29Z</time>
      </trkpt>
      <trkpt lat="43.41302" lon="6.85058">
        <ele>23.58</ele>
        <time>2016-11-12T13:52:53Z</time>
      </trkpt>
      <trkpt lat="43.4129" lon="6.85077">
        <ele>29.97</ele>
        <time>2016-11-12T13:53:14Z</time>
      </trkpt>
      <trkpt lat="43.41277" lon="6.85093">
        <ele>34.98</ele>
        <time>2016-11-12T13:53:33Z</time>
      </trkpt>
      <trkpt lat="43.41259" lon="6.85104">
        <ele>38.4</ele>
        <time>2016-11-12T13:54:13Z</time>
      </trkpt>
      <trkpt lat="43.41263" lon="6.85129">
        <ele>39.14</ele>
        <time>2016-11-12T14:01:09Z</time>
      </trkpt>
      <trkpt lat="43.41265" lon="6.85153">
        <ele>34.38</ele>
        <time>2016-11-12T14:01:32Z</time>
      </trkpt>
      <trkpt lat="43.41261" lon="6.85179">
        <ele>33.14</ele>
        <time>2016-11-12T14:02:00Z</time>
      </trkpt>
      <trkpt lat="43.41266" lon="6.85204">
        <ele>31.21</ele>
        <time>2016-11-12T14:02:16Z</time>
      </trkpt>
      <trkpt lat="43.41263" lon="6.85229">
        <ele>39.14</ele>
        <time>2016-11-12T14:02:33Z</time>
      </trkpt>
      <trkpt lat="43.41263" lon="6.85257">
        <ele>42.34</ele>
        <time>2016-11-12T14:03:25Z</time>
      </trkpt>
      <trkpt lat="43.41273" lon="6.8528">
        <ele>42.37</ele>
        <time>2016-11-12T14:03:40Z</time>
      </trkpt>
      <trkpt lat="43.41287" lon="6.85299">
        <ele>43.38</ele>
        <time>2016-11-12T14:03:54Z</time>
      </trkpt>
      <trkpt lat="43.41298" lon="6.8532">
        <ele>38.22</ele>
        <time>2016-11-12T14:04:17Z</time>
      </trkpt>
      <trkpt lat="43.41301" lon="6.85346">
        <ele>41.33</ele>
        <time>2016-11-12T14:04:33Z</time>
      </trkpt>
      <trkpt lat="43.41301" lon="6.85374">
        <ele>43.42</ele>
        <time>2016-11-12T14:04:51Z</time>
      </trkpt>
      <trkpt lat="43.41294" lon="6.85398">
        <ele>41.03</ele>
        <time>2016-11-12T14:05:10Z</time>
      </trkpt>
      <trkpt lat="43.41289" lon="6.85422">
        <ele>33.61</ele>
        <time>2016-11-12T14:09:12Z</time>
      </trkpt>
      <trkpt lat="43.41281" lon="6.85445">
        <ele>30.58</ele>
        <time>2016-11-12T14:09:25Z</time>
      </trkpt>
      <trkpt lat="43.41271" lon="6.85466">
        <ele>34.77</ele>
        <time>2016-11-12T14:09:42Z</time>
      </trkpt>
      <trkpt lat="43.41262" lon="6.85488">
        <ele>35.17</ele>
        <time>2016-11-12T14:10:00Z</time>
      </trkpt>
      <trkpt lat="43.41251" lon="6.85509">
        <ele>33.98</ele>
        <time>2016-11-12T14:10:28Z</time>
      </trkpt>
      <trkpt lat="43.41267" lon="6.85496">
        <ele>32.37</ele>
        <time>2016-11-12T14:16:49Z</time>
      </trkpt>
      <trkpt lat="43.41284" lon="6.85505">
        <ele>32.21</ele>
        <time>2016-11-12T14:17:14Z</time>
      </trkpt>
      <trkpt lat="43.41301" lon="6.85517">
        <ele>33.54</ele>
        <time>2016-11-12T14:17:37Z</time>
      </trkpt>
      <trkpt lat="43.41315" lon="6.85532">
        <ele>38.42</ele>
        <time>2016-11-12T14:20:00Z</time>
      </trkpt>
      <trkpt lat="43.41333" lon="6.85527">
        <ele>33.42</ele>
        <time>2016-11-12T14:20:11Z</time>
      </trkpt>
      <trkpt lat="43.41352" lon="6.85523">
        <ele>37.17</ele>
        <time>2016-11-12T14:20:29Z</time>
      </trkpt>
      <trkpt lat="43.41369" lon="6.85512">
        <ele>43.01</ele>
        <time>2016-11-12T14:20:53Z</time>
      </trkpt>
      <trkpt lat="43.41362" lon="6.85485">
        <ele>40.19</ele>
        <time>2016-11-12T14:21:37Z</time>
      </trkpt>
      <trkpt lat="43.41343" lon="6.8548">
        <ele>45.93</ele>
        <time>2016-11-12T14:21:51Z</time>
      </trkpt>
      <trkpt lat="43.41361" lon="6.85469">
        <ele>54.98</ele>
        <time>2016-11-12T14:22:16Z</time>
      </trkpt>
      <trkpt lat="43.41379" lon="6.85466">
        <ele>56.38</ele>
        <time>2016-11-12T14:22:39Z</time>
      </trkpt>
      <trkpt lat="43.41398" lon="6.85464">
        <ele>54.97</ele>
        <time>2016-11-12T14:22:56Z</time>
      </trkpt>
      <trkpt lat="43.41416" lon="6.85456">
        <ele>62.13</ele>
        <time>2016-11-12T14:23:17Z</time>
      </trkpt>
      <trkpt lat="43.41435" lon="6.85454">
        <ele>63.95</ele>
        <time>2016-11-12T14:23:31Z</time>
      </trkpt>
      <trkpt lat="43.41454" lon="6.85456">
        <ele>61.02</ele>
        <time>2016-11-12T14:23:44Z</time>
      </trkpt>
      <trkpt lat="43.41471" lon="6.85449">
        <ele>65.17</ele>
        <time>2016-11-12T14:24:01Z</time>
      </trkpt>
      <trkpt lat="43.41489" lon="6.85443">
        <ele>69.38</ele>
        <time>2016-11-12T14:24:21Z</time>
      </trkpt>
      <trkpt lat="43.41507" lon="6.85446">
        <ele>66.99</ele>
        <time>2016-11-12T14:24:32Z</time>
      </trkpt>
      <trkpt lat="43.41523" lon="6.8546">
        <ele>74.14</ele>
        <time>2016-11-12T14:24:50Z</time>
      </trkpt>
      <trkpt lat="43.41539" lon="6.85471">
        <ele>84.18</ele>
        <time>2016-11-12T14:25:45Z</time>
      </trkpt>
      <trkpt lat="43.41557" lon="6.85482">
        <ele>88.54</ele>
        <time>2016-11-12T14:28:49Z</time>
      </trkpt>
      <trkpt lat="43.41573" lon="6.85497">
        <ele>81.26</ele>
        <time>2016-11-12T14:28:57Z</time>
      </trkpt>
      <trkpt lat="43.41587" lon="6.85516">
        <ele>82.01</ele>
        <time>2016-11-12T14:29:13Z</time>
      </trkpt>
      <trkpt lat="43.41604" lon="6.85528">
        <ele>81.62</ele>
        <time>2016-11-12T14:29:28Z</time>
      </trkpt>
      <trkpt lat="43.41615" lon="6.85548">
        <ele>84.18</ele>
        <time>2016-11-12T14:29:42Z</time>
      </trkpt>
      <trkpt lat="43.41628" lon="6.85568">
        <ele>86.1</ele>
        <time>2016-11-12T14:29:58Z</time>
      </trkpt>
      <trkpt lat="43.41637" lon="6.85591">
        <ele>86.22</ele>
        <time>2016-11-12T14:30:28Z</time>
      </trkpt>
      <trkpt lat="43.41642" lon="6.85615">
        <ele>92.93</ele>
        <time>2016-11-12T14:30:44Z</time>
      </trkpt>
      <trkpt lat="43.41631" lon="6.85635">
        <ele>65.12</ele>
        <time>2016-11-12T14:31:09Z</time>
      </trkpt>
      <trkpt lat="43.41612" lon="6.85639">
        <ele>106.34</ele>
        <time>2016-11-12T14:32:14Z</time>
      </trkpt>
      <trkpt lat="43.41596" lon="6.8565">
        <ele>108.22</ele>
        <time>2016-11-12T14:33:44Z</time>
      </trkpt>
      <trkpt lat="43.41598" lon="6.85624">
        <ele>109.01</ele>
        <time>2016-11-12T14:47:21Z</time>
      </trkpt>
      <trkpt lat="43.41613" lon="6.85607">
        <ele>103.18</ele>
        <time>2016-11-12T14:48:18Z</time>
      </trkpt>
      <trkpt lat="43.41602" lon="6.85586">
        <ele>101.05</ele>
        <time>2016-11-12T14:48:55Z</time>
      </trkpt>
      <trkpt lat="43.4162" lon="6.85585">
        <ele>96.14</ele>
        <time>2016-11-12T14:49:32Z</time>
      </trkpt>
      <trkpt lat="43.41617" lon="6.85557">
        <ele>93.95</ele>
        <time>2016-11-12T14:50:33Z</time>
      </trkpt>
      <trkpt lat="43.41609" lon="6.85533">
        <ele>90.01</ele>
        <time>2016-11-12T14:50:54Z</time>
      </trkpt>
      <trkpt lat="43.41593" lon="6.85521">
        <ele>83.6</ele>
        <time>2016-11-12T14:51:36Z</time>
      </trkpt>
      <trkpt lat="43.41577" lon="6.85507">
        <ele>88.14</ele>
        <time>2016-11-12T14:52:18Z</time>
      </trkpt>
      <trkpt lat="43.41563" lon="6.85487">
        <ele>89.17</ele>
        <time>2016-11-12T14:52:36Z</time>
      </trkpt>
      <trkpt lat="43.41548" lon="6.85474">
        <ele>88.01</ele>
        <time>2016-11-12T14:53:13Z</time>
      </trkpt>
      <trkpt lat="43.41537" lon="6.85495">
        <ele>78.03</ele>
        <time>2016-11-12T14:54:11Z</time>
      </trkpt>
      <trkpt lat="43.41519" lon="6.8549">
        <ele>74.14</ele>
        <time>2016-11-12T14:54:46Z</time>
      </trkpt>
      <trkpt lat="43.41528" lon="6.85512">
        <ele>69.18</ele>
        <time>2016-11-12T14:55:06Z</time>
      </trkpt>
      <trkpt lat="43.41533" lon="6.85538">
        <ele>67.18</ele>
        <time>2016-11-12T14:55:43Z</time>
      </trkpt>
      <trkpt lat="43.41535" lon="6.85563">
        <ele>61.07</ele>
        <time>2016-11-12T14:56:05Z</time>
      </trkpt>
      <trkpt lat="43.41533" lon="6.85588">
        <ele>65.13</ele>
        <time>2016-11-12T14:56:18Z</time>
      </trkpt>
      <trkpt lat="43.41532" lon="6.85614">
        <ele>61.34</ele>
        <time>2016-11-12T14:56:34Z</time>
      </trkpt>
      <trkpt lat="43.41526" lon="6.85638">
        <ele>64.13</ele>
        <time>2016-11-12T14:56:50Z</time>
      </trkpt>
      <trkpt lat="43.4152" lon="6.85662">
        <ele>59.14</ele>
        <time>2016-11-12T14:57:15Z</time>
      </trkpt>
      <trkpt lat="43.41504" lon="6.85673">
        <ele>53.18</ele>
        <time>2016-11-12T14:57:59Z</time>
      </trkpt>
      <trkpt lat="43.41514" lon="6.85695">
        <ele>49.18</ele>
        <time>2016-11-12T14:58:32Z</time>
      </trkpt>
      <trkpt lat="43.41523" lon="6.85717">
        <ele>48.09</ele>
        <time>2016-11-12T14:58:46Z</time>
      </trkpt>
      <trkpt lat="43.41535" lon="6.85736">
        <ele>46.01</ele>
        <time>2016-11-12T14:59:01Z</time>
      </trkpt>
      <trkpt lat="43.41542" lon="6.8576">
        <ele>49.17</ele>
        <time>2016-11-12T14:59:17Z</time>
      </trkpt>
      <trkpt lat="43.41545" lon="6.85785">
        <ele>47.41</ele>
        <time>2016-11-12T14:59:34Z</time>
      </trkpt>
      <trkpt lat="43.41547" lon="6.8581">
        <ele>46.98</ele>
        <time>2016-11-12T14:59:51Z</time>
      </trkpt>
      <trkpt lat="43.41563" lon="6.85824">
        <ele>54.18</ele>
        <time>2016-11-12T15:00:39Z</time>
      </trkpt>
      <trkpt lat="43.41581" lon="6.85833">
        <ele>52.21</ele>
        <time>2016-11-12T15:02:02Z</time>
      </trkpt>
      <trkpt lat="43.41599" lon="6.85829">
        <ele>46.38</ele>
        <time>2016-11-12T15:02:20Z</time>
      </trkpt>
      <trkpt lat="43.41618" lon="6.85833">
        <ele>46.18</ele>
        <time>2016-11-12T15:02:40Z</time>
      </trkpt>
      <trkpt lat="43.41636" lon="6.85831">
        <ele>48.14</ele>
        <time>2016-11-12T15:02:59Z</time>
      </trkpt>
      <trkpt lat="43.41655" lon="6.8582">
        <ele>47.22</ele>
        <time>2016-11-12T15:03:21Z</time>
      </trkpt>
      <trkpt lat="43.41672" lon="6.85811">
        <ele>42.21</ele>
        <time>2016-11-12T15:03:41Z</time>
      </trkpt>
      <trkpt lat="43.4169" lon="6.85804">
        <ele>39.42</ele>
        <time>2016-11-12T15:04:10Z</time>
      </trkpt>
      <trkpt lat="43.41708" lon="6.85797">
        <ele>35.22</ele>
        <time>2016-11-12T15:04:25Z</time>
      </trkpt>
      <trkpt lat="43.41691" lon="6.85807">
        <ele>34.02</ele>
        <time>2016-11-12T15:05:43Z</time>
      </trkpt>
      <trkpt lat="43.41678" lon="6.85825">
        <ele>37.21</ele>
        <time>2016-11-12T15:05:58Z</time>
      </trkpt>
      <trkpt lat="43.4167" lon="6.8585">
        <ele>30.03</ele>
        <time>2016-11-12T15:06:25Z</time>
      </trkpt>
      <trkpt lat="43.41661" lon="6.85874">
        <ele>32.13</ele>
        <time>2016-11-12T15:06:36Z</time>
      </trkpt>
      <trkpt lat="43.41653" lon="6.85898">
        <ele>31.36</ele>
        <time>2016-11-12T15:06:56Z</time>
      </trkpt>
      <trkpt lat="43.4164" lon="6.85917">
        <ele>23.14</ele>
        <time>2016-11-12T15:07:31Z</time>
      </trkpt>
      <trkpt lat="43.41638" lon="6.85942">
        <ele>17.18</ele>
        <time>2016-11-12T15:07:54Z</time>
      </trkpt>
      <trkpt lat="43.41656" lon="6.85932">
        <ele>19.33</ele>
        <time>2016-11-12T15:09:56Z</time>
      </trkpt>
      <trkpt lat="43.41674" lon="6.85927">
        <ele>19.17</ele>
        <time>2016-11-12T15:10:10Z</time>
      </trkpt>
      <trkpt lat="43.41692" lon="6.85921">
        <ele>15.38</ele>
        <time>2016-11-12T15:10:27Z</time>
      </trkpt>
      <trkpt lat="43.41709" lon="6.85907">
        <ele>11.37</ele>
        <time>2016-11-12T15:10:42Z</time>
      </trkpt>
      <trkpt lat="43.41724" lon="6.8589">
        <ele>5.34</ele>
        <time>2016-11-12T15:11:00Z</time>
      </trkpt>
      <trkpt lat="43.41738" lon="6.85873">
        <ele>4.17</ele>
        <time>2016-11-12T15:11:17Z</time>
      </trkpt>
      <trkpt lat="43.41757" lon="6.85865">
        <ele>4.14</ele>
        <time>2016-11-12T15:11:51Z</time>
      </trkpt>
      <trkpt lat="43.41776" lon="6.85855">
        <ele>9.97</ele>
        <time>2016-11-12T15:12:07Z</time>
      </trkpt>
      <trkpt lat="43.41794" lon="6.85852">
        <ele>12.98</ele>
        <time>2016-11-12T15:12:27Z</time>
      </trkpt>
      <trkpt lat="43.41812" lon="6.85855">
        <ele>9.03</ele>
        <time>2016-11-12T15:12:42Z</time>
      </trkpt>
      <trkpt lat="43.4183" lon="6.85862">
        <ele>17.77</ele>
        <time>2016-11-12T15:13:04Z</time>
      </trkpt>
      <trkpt lat="43.4185" lon="6.85868">
        <ele>17.17</ele>
        <time>2016-11-12T15:13:33Z</time>
      </trkpt>
      <trkpt lat="43.41861" lon="6.85891">
        <ele>19.61</ele>
        <time>2016-11-12T15:13:50Z</time>
      </trkpt>
      <trkpt lat="43.41879" lon="6.85887">
        <ele>10.03</ele>
        <time>2016-11-12T15:14:23Z</time>
      </trkpt>
      <trkpt lat="43.41895" lon="6.85874">
        <ele>11.78</ele>
        <time>2016-11-12T15:14:41Z</time>
      </trkpt>
      <trkpt lat="43.41907" lon="6.85852">
        <ele>8.57</ele>
        <time>2016-11-12T15:14:53Z</time>
      </trkpt>
      <trkpt lat="43.41922" lon="6.85835">
        <ele>0.82</ele>
        <time>2016-11-12T15:15:09Z</time>
      </trkpt>
      <trkpt lat="43.41939" lon="6.85826">
        <ele>6.18</ele>
        <time>2016-11-12T15:15:29Z</time>
      </trkpt>
      <trkpt lat="43.41947" lon="6.85802">
        <ele>7.34</ele>
        <time>2016-11-12T15:16:27Z</time>
      </trkpt>
      <trkpt lat="43.41947" lon="6.85777">
        <ele>9.93</ele>
        <time>2016-11-12T15:16:42Z</time>
      </trkpt>
      <trkpt lat="43.41958" lon="6.85757">
        <ele>8.26</ele>
        <time>2016-11-12T15:17:01Z</time>
      </trkpt>
      <trkpt lat="43.41944" lon="6.85742">
        <ele>8.14</ele>
        <time>2016-11-12T15:21:21Z</time>
      </trkpt>
      <trkpt lat="43.41933" lon="6.85722">
        <ele>5.19</ele>
        <time>2016-11-12T15:22:08Z</time>
      </trkpt>
      <trkpt lat="43.41922" lon="6.85701">
        <ele>3.37</ele>
        <time>2016-11-12T15:22:31Z</time>
      </trkpt>
      <trkpt lat="43.4191" lon="6.85681">
        <ele>5.89</ele>
        <time>2016-11-12T15:22:46Z</time>
      </trkpt>
      <trkpt lat="43.41899" lon="6.85662">
        <ele>7.21</ele>
        <time>2016-11-12T15:23:10Z</time>
      </trkpt>
      <trkpt lat="43.41885" lon="6.85645">
        <ele>10.05</ele>
        <time>2016-11-12T15:23:28Z</time>
      </trkpt>
      <trkpt lat="43.41873" lon="6.85624">
        <ele>14.14</ele>
        <time>2016-11-12T15:23:45Z</time>
      </trkpt>
      <trkpt lat="43.41857" lon="6.85615">
        <ele>20.93</ele>
        <time>2016-11-12T15:24:54Z</time>
      </trkpt>
      <trkpt lat="43.41848" lon="6.85591">
        <ele>27.99</ele>
        <time>2016-11-12T15:25:17Z</time>
      </trkpt>
      <trkpt lat="43.41836" lon="6.85572">
        <ele>29.17</ele>
        <time>2016-11-12T15:25:42Z</time>
      </trkpt>
      <trkpt lat="43.41826" lon="6.8555">
        <ele>35.54</ele>
        <time>2016-11-12T15:26:24Z</time>
      </trkpt>
      <trkpt lat="43.41812" lon="6.85529">
        <ele>34.33</ele>
        <time>2016-11-12T15:26:38Z</time>
      </trkpt>
      <trkpt lat="43.41809" lon="6.85505">
        <ele>41.81</ele>
        <time>2016-11-12T15:27:51Z</time>
      </trkpt>
      <trkpt lat="43.41793" lon="6.85493">
        <ele>41.89</ele>
        <time>2016-11-12T15:28:31Z</time>
      </trkpt>
      <trkpt lat="43.41778" lon="6.85479">
        <ele>39.15</ele>
        <time>2016-11-12T15:28:40Z</time>
      </trkpt>
      <trkpt lat="43.41763" lon="6.85462">
        <ele>37.18</ele>
        <time>2016-11-12T15:29:10Z</time>
      </trkpt>
      <trkpt lat="43.4175" lon="6.85445">
        <ele>27.93</ele>
        <time>2016-11-12T15:29:30Z</time>
      </trkpt>
      <trkpt lat="43.41748" lon="6.85418">
        <ele>20.42</ele>
        <time>2016-11-12T15:29:49Z</time>
      </trkpt>
      <trkpt lat="43.4175" lon="6.8539">
        <ele>20.17</ele>
        <time>2016-11-12T15:30:04Z</time>
      </trkpt>
      <trkpt lat="43.41738" lon="6.85367">
        <ele>19.57</ele>
        <time>2016-11-12T15:30:22Z</time>
      </trkpt>
      <trkpt lat="43.41733" lon="6.85343">
        <ele>20.93</ele>
        <time>2016-11-12T15:30:35Z</time>
      </trkpt>
      <trkpt lat="43.41746" lon="6.85324">
        <ele>22.02</ele>
        <time>2016-11-12T15:30:48Z</time>
      </trkpt>
      <trkpt lat="43.41753" lon="6.853">
        <ele>27.13</ele>
        <time>2016-11-12T15:31:01Z</time>
      </trkpt>
      <trkpt lat="43.41748" lon="6.85274">
        <ele>22.4</ele>
        <time>2016-11-12T15:31:20Z</time>
      </trkpt>
      <trkpt lat="43.41752" lon="6.85248">
        <ele>25.92</ele>
        <time>2016-11-12T15:31:32Z</time>
      </trkpt>
      <trkpt lat="43.4175" lon="6.85222">
        <ele>28.77</ele>
        <time>2016-11-12T15:31:44Z</time>
      </trkpt>
      <trkpt lat="43.41745" lon="6.85196">
        <ele>28.01</ele>
        <time>2016-11-12T15:32:05Z</time>
      </trkpt>
      <trkpt lat="43.41735" lon="6.85175">
        <ele>27.99</ele>
        <time>2016-11-12T15:32:18Z</time>
      </trkpt>
      <trkpt lat="43.41721" lon="6.85157">
        <ele>23.01</ele>
        <time>2016-11-12T15:32:33Z</time>
      </trkpt>
      <trkpt lat="43.41707" lon="6.85141">
        <ele>18.24</ele>
        <time>2016-11-12T15:32:42Z</time>
      </trkpt>
      <trkpt lat="43.41698" lon="6.85119">
        <ele>21.22</ele>
        <time>2016-11-12T15:32:59Z</time>
      </trkpt>
      <trkpt lat="43.41683" lon="6.85102">
        <ele>20.93</ele>
        <time>2016-11-12T15:33:10Z</time>
      </trkpt>
      <trkpt lat="43.41673" lon="6.85082">
        <ele>21.37</ele>
        <time>2016-11-12T15:33:27Z</time>
      </trkpt>
      <trkpt lat="43.4166" lon="6.85065">
        <ele>23.61</ele>
        <time>2016-11-12T15:33:44Z</time>
      </trkpt>
      <trkpt lat="43.41641" lon="6.85057">
        <ele>26.97</ele>
        <time>2016-11-12T15:33:54Z</time>
      </trkpt>
      <trkpt lat="43.41623" lon="6.85049">
        <ele>28.29</ele>
        <time>2016-11-12T15:34:11Z</time>
      </trkpt>
      <trkpt lat="43.41605" lon="6.85041">
        <ele>19.24</ele>
        <time>2016-11-12T15:34:28Z</time>
      </trkpt>
      <trkpt lat="43.41588" lon="6.85034">
        <ele>23.98</ele>
        <time>2016-11-12T15:35:03Z</time>
      </trkpt>
      <trkpt lat="43.4157" lon="6.85026">
        <ele>23.21</ele>
        <time>2016-11-12T15:35:18Z</time>
      </trkpt>
      <trkpt lat="43.4155" lon="6.85026">
        <ele>17.4</ele>
        <time>2016-11-12T15:35:33Z</time>
      </trkpt>
      <trkpt lat="43.41532" lon="6.85016">
        <ele>13.22</ele>
        <time>2016-11-12T15:35:51Z</time>
      </trkpt>
      <trkpt lat="43.41517" lon="6.85">
        <ele>16.94</ele>
        <time>2016-11-12T15:36:09Z</time>
      </trkpt>
      <trkpt lat="43.41498" lon="6.84991">
        <ele>13.34</ele>
        <time>2016-11-12T15:36:28Z</time>
      </trkpt>
      <trkpt lat="43.41481" lon="6.84981">
        <ele>13.06</ele>
        <time>2016-11-12T15:36:39Z</time>
      </trkpt>
      <trkpt lat="43.41464" lon="6.84968">
        <ele>15.94</ele>
        <time>2016-11-12T15:36:56Z</time>
      </trkpt>
      <trkpt lat="43.41448" lon="6.84946">
        <ele>8.22</ele>
        <time>2016-11-12T15:37:09Z</time>
      </trkpt>
      <trkpt lat="43.41433" lon="6.8493">
        <ele>9.94</ele>
        <time>2016-11-12T15:37:23Z</time>
      </trkpt>
      <trkpt lat="43.41424" lon="6.84909">
        <ele>9.21</ele>
        <time>2016-11-12T15:37:41Z</time>
      </trkpt>
      <trkpt lat="43.41414" lon="6.84888">
        <ele>7.34</ele>
        <time>2016-11-12T15:38:08Z</time>
      </trkpt>
      <trkpt lat="43.41424" lon="6.84865">
        <ele>-3.99</ele>
        <time>2016-11-12T15:38:32Z</time>
      </trkpt>
      <trkpt lat="43.41439" lon="6.84848">
        <ele>-3.82</ele>
        <time>2016-11-12T15:38:45Z</time>
      </trkpt>
      <trkpt lat="43.41457" lon="6.84843">
        <ele>-8.02</ele>
        <time>2016-11-12T15:39:25Z</time>
      </trkpt>
      <trkpt lat="43.41467" lon="6.84822">
        <ele>-5.66</ele>
        <time>2016-11-12T15:40:15Z</time>
      </trkpt>
      <trkpt lat="43.41468" lon="6.84796">
        <ele>-5.04</ele>
        <time>2016-11-12T15:40:31Z</time>
      </trkpt>
      <trkpt lat="43.41454" lon="6.84778">
        <ele>-8.63</ele>
        <time>2016-11-12T15:40:48Z</time>
      </trkpt>
      <trkpt lat="43.41454" lon="6.84753">
        <ele>-6.22</ele>
        <time>2016-11-12T15:41:21Z</time>
      </trkpt>
      <trkpt lat="43.41466" lon="6.84733">
        <ele>-6.78</ele>
        <time>2016-11-12T15:41:40Z</time>
      </trkpt>
      <trkpt lat="43.41482" lon="6.84717">
        <ele>-6.03</ele>
        <time>2016-11-12T15:42:04Z</time>
      </trkpt>
      <trkpt lat="43.4149" lon="6.84693">
        <ele>-5.82</ele>
        <time>2016-11-12T15:42:19Z</time>
      </trkpt>
      <trkpt lat="43.41502" lon="6.84674">
        <ele>-3.66</ele>
        <time>2016-11-12T15:42:34Z</time>
      </trkpt>
      <trkpt lat="43.41512" lon="6.84652">
        <ele>-5.82</ele>
        <time>2016-11-12T15:42:52Z</time>
      </trkpt>
      <trkpt lat="43.41525" lon="6.84635">
        <ele>-2.63</ele>
        <time>2016-11-12T15:43:08Z</time>
      </trkpt>
      <trkpt lat="43.41535" lon="6.84614">
        <ele>-3.02</ele>
        <time>2016-11-12T15:43:24Z</time>
      </trkpt>
      <trkpt lat="43.41542" lon="6.84591">
        <ele>-1.03</ele>
        <time>2016-11-12T15:43:39Z</time>
      </trkpt>
      <trkpt lat="43.41549" lon="6.84567">
        <ele>-0.82</ele>
        <time>2016-11-12T15:43:55Z</time>
      </trkpt>
      <trkpt lat="43.41566" lon="6.84555">
        <ele>-0.79</ele>
        <time>2016-11-12T15:44:15Z</time>
      </trkpt>
      <trkpt lat="43.41584" lon="6.84554">
        <ele>0.34</ele>
        <time>2016-11-12T15:44:31Z</time>
      </trkpt>
      <trkpt lat="43.41602" lon="6.84543">
        <ele>0.18</ele>
        <time>2016-11-12T15:44:48Z</time>
      </trkpt>
      <trkpt lat="43.41623" lon="6.84546">
        <ele>-1.67</ele>
        <time>2016-11-12T15:45:03Z</time>
      </trkpt>
      <trkpt lat="43.41641" lon="6.84554">
        <ele>-0.87</ele>
        <time>2016-11-12T15:45:19Z</time>
      </trkpt>
      <trkpt lat="43.41655" lon="6.84571">
        <ele>-0.02</ele>
        <time>2016-11-12T15:47:52Z</time>
      </trkpt>
      <trkpt lat="43.41668" lon="6.84589">
        <ele>6.36</ele>
        <time>2016-11-12T15:48:07Z</time>
      </trkpt>
      <trkpt lat="43.41682" lon="6.84606">
        <ele>11.17</ele>
        <time>2016-11-12T15:48:22Z</time>
      </trkpt>
      <trkpt lat="43.41696" lon="6.84621">
        <ele>10.22</ele>
        <time>2016-11-12T15:48:49Z</time>
      </trkpt>
      <trkpt lat="43.41714" lon="6.84618">
        <ele>11.17</ele>
        <time>2016-11-12T15:49:02Z</time>
      </trkpt>
      <trkpt lat="43.41733" lon="6.84617">
        <ele>12.98</ele>
        <time>2016-11-12T15:49:17Z</time>
      </trkpt>
      <trkpt lat="43.41749" lon="6.84633">
        <ele>8.22</ele>
        <time>2016-11-12T15:49:30Z</time>
      </trkpt>
      <trkpt lat="43.41764" lon="6.84646">
        <ele>6.38</ele>
        <time>2016-11-12T15:49:42Z</time>
      </trkpt>
      <trkpt lat="43.4178" lon="6.84661">
        <ele>11.13</ele>
        <time>2016-11-12T15:49:56Z</time>
      </trkpt>
      <trkpt lat="43.4179" lon="6.84685">
        <ele>10.38</ele>
        <time>2016-11-12T15:50:43Z</time>
      </trkpt>
      <trkpt lat="43.41795" lon="6.84709">
        <ele>13.94</ele>
        <time>2016-11-12T15:50:52Z</time>
      </trkpt>
      <trkpt lat="43.41796" lon="6.84736">
        <ele>10.63</ele>
        <time>2016-11-12T15:51:02Z</time>
      </trkpt>
      <trkpt lat="43.41798" lon="6.84763">
        <ele>6.43</ele>
        <time>2016-11-12T15:51:17Z</time>
      </trkpt>
      <trkpt lat="43.41795" lon="6.84787">
        <ele>11.33</ele>
        <time>2016-11-12T15:53:59Z</time>
      </trkpt>
      <trkpt lat="43.41793" lon="6.84762">
        <ele>13.34</ele>
        <time>2016-11-12T15:58:16Z</time>
      </trkpt>
      <trkpt lat="43.41791" lon="6.84736">
        <ele>9.18</ele>
        <time>2016-11-12T15:58:56Z</time>
      </trkpt>
      <trkpt lat="43.41787" lon="6.84709">
        <ele>11.41</ele>
        <time>2016-11-12T15:59:09Z</time>
      </trkpt>
      <trkpt lat="43.41784" lon="6.84685">
        <ele>8.14</ele>
        <time>2016-11-12T15:59:26Z</time>
      </trkpt>
      <trkpt lat="43.41784" lon="6.84659">
        <ele>15.18</ele>
        <time>2016-11-12T15:59:39Z</time>
      </trkpt>
      <trkpt lat="43.41783" lon="6.84634">
        <ele>14.18</ele>
        <time>2016-11-12T15:59:52Z</time>
      </trkpt>
      <trkpt lat="43.41779" lon="6.84609">
        <ele>17.17</ele>
        <time>2016-11-12T16:00:05Z</time>
      </trkpt>
      <trkpt lat="43.41781" lon="6.84581">
        <ele>16.98</ele>
        <time>2016-11-12T16:00:21Z</time>
      </trkpt>
      <trkpt lat="43.41775" lon="6.84556">
        <ele>13.43</ele>
        <time>2016-11-12T16:00:34Z</time>
      </trkpt>
      <trkpt lat="43.41771" lon="6.8453">
        <ele>13.38</ele>
        <time>2016-11-12T16:00:48Z</time>
      </trkpt>
      <trkpt lat="43.41769" lon="6.84505">
        <ele>8.34</ele>
        <time>2016-11-12T16:01:04Z</time>
      </trkpt>
      <trkpt lat="43.41766" lon="6.8448">
        <ele>13.22</ele>
        <time>2016-11-12T16:01:19Z</time>
      </trkpt>
      <trkpt lat="43.41762" lon="6.84456">
        <ele>12.33</ele>
        <time>2016-11-12T16:01:33Z</time>
      </trkpt>
      <trkpt lat="43.41762" lon="6.84429">
        <ele>14.01</ele>
        <time>2016-11-12T16:01:47Z</time>
      </trkpt>
      <trkpt lat="43.41757" lon="6.84403">
        <ele>14.79</ele>
        <time>2016-11-12T16:02:01Z</time>
      </trkpt>
      <trkpt lat="43.41757" lon="6.84377">
        <ele>13.37</ele>
        <time>2016-11-12T16:02:14Z</time>
      </trkpt>
      <trkpt lat="43.41753" lon="6.84351">
        <ele>12.37</ele>
        <time>2016-11-12T16:02:30Z</time>
      </trkpt>
      <trkpt lat="43.41747" lon="6.84326">
        <ele>11.41</ele>
        <time>2016-11-12T16:02:41Z</time>
      </trkpt>
      <trkpt lat="43.41748" lon="6.843">
        <ele>11.21</ele>
        <time>2016-11-12T16:02:56Z</time>
      </trkpt>
      <trkpt lat="43.41749" lon="6.84274">
        <ele>11.22</ele>
        <time>2016-11-12T16:03:13Z</time>
      </trkpt>
      <trkpt lat="43.41748" lon="6.8425">
        <ele>10.98</ele>
        <time>2016-11-12T16:03:26Z</time>
      </trkpt>
      <trkpt lat="43.41741" lon="6.84221">
        <ele>13.53</ele>
        <time>2016-11-12T16:03:38Z</time>
      </trkpt>
      <trkpt lat="43.4174" lon="6.84196">
        <ele>12.61</ele>
        <time>2016-11-12T16:03:52Z</time>
      </trkpt>
      <trkpt lat="43.41738" lon="6.8417">
        <ele>11.98</ele>
        <time>2016-11-12T16:04:05Z</time>
      </trkpt>
      <trkpt lat="43.41735" lon="6.84144">
        <ele>12.37</ele>
        <time>2016-11-12T16:04:19Z</time>
      </trkpt>
      <trkpt lat="43.41733" lon="6.84118">
        <ele>8.38</ele>
        <time>2016-11-12T16:04:34Z</time>
      </trkpt>
      <trkpt lat="43.41732" lon="6.84092">
        <ele>8.14</ele>
        <time>2016-11-12T16:04:46Z</time>
      </trkpt>
      <trkpt lat="43.41733" lon="6.84065">
        <ele>9.22</ele>
        <time>2016-11-12T16:05:00Z</time>
      </trkpt>
      <trkpt lat="43.4173" lon="6.84039">
        <ele>11.17</ele>
        <time>2016-11-12T16:05:13Z</time>
      </trkpt>
      <trkpt lat="43.41727" lon="6.84014">
        <ele>10.38</ele>
        <time>2016-11-12T16:05:23Z</time>
      </trkpt>
      <trkpt lat="43.41727" lon="6.83988">
        <ele>12.18</ele>
        <time>2016-11-12T16:05:36Z</time>
      </trkpt>
      <trkpt lat="43.41719" lon="6.83965">
        <ele>8.33</ele>
        <time>2016-11-12T16:05:49Z</time>
      </trkpt>
      <trkpt lat="43.41714" lon="6.83939">
        <ele>13.13</ele>
        <time>2016-11-12T16:06:00Z</time>
      </trkpt>
      <trkpt lat="43.41715" lon="6.83913">
        <ele>17.18</ele>
        <time>2016-11-12T16:06:13Z</time>
      </trkpt>
      <trkpt lat="43.4171" lon="6.83887">
        <ele>14.93</ele>
        <time>2016-11-12T16:06:29Z</time>
      </trkpt>
      <trkpt lat="43.41709" lon="6.83861">
        <ele>14.98</ele>
        <time>2016-11-12T16:06:41Z</time>
      </trkpt>
      <trkpt lat="43.41706" lon="6.83835">
        <ele>15.18</ele>
        <time>2016-11-12T16:06:56Z</time>
      </trkpt>
      <trkpt lat="43.41704" lon="6.8381">
        <ele>12.21</ele>
        <time>2016-11-12T16:07:07Z</time>
      </trkpt>
      <trkpt lat="43.41702" lon="6.83783">
        <ele>11.02</ele>
        <time>2016-11-12T16:07:20Z</time>
      </trkpt>
      <trkpt lat="43.41695" lon="6.83757">
        <ele>11.98</ele>
        <time>2016-11-12T16:07:33Z</time>
      </trkpt>
      <trkpt lat="43.41694" lon="6.8373">
        <ele>14.01</ele>
        <time>2016-11-12T16:07:49Z</time>
      </trkpt>
      <trkpt lat="43.41695" lon="6.83704">
        <ele>12.14</ele>
        <time>2016-11-12T16:08:04Z</time>
      </trkpt>
      <trkpt lat="43.41695" lon="6.83677">
        <ele>12.18</ele>
        <time>2016-11-12T16:08:16Z</time>
      </trkpt>
      <trkpt lat="43.41696" lon="6.83651">
        <ele>10.54</ele>
        <time>2016-11-12T16:08:31Z</time>
      </trkpt>
      <trkpt lat="43.41692" lon="6.83626">
        <ele>8.21</ele>
        <time>2016-11-12T16:08:43Z</time>
      </trkpt>
      <trkpt lat="43.4169" lon="6.836">
        <ele>8.13</ele>
        <time>2016-11-12T16:08:56Z</time>
      </trkpt>
      <trkpt lat="43.41685" lon="6.83576">
        <ele>7.98</ele>
        <time>2016-11-12T16:09:10Z</time>
      </trkpt>
      <trkpt lat="43.41679" lon="6.83552">
        <ele>8.02</ele>
        <time>2016-11-12T16:09:23Z</time>
      </trkpt>
      <trkpt lat="43.41672" lon="6.83529">
        <ele>11.13</ele>
        <time>2016-11-12T16:09:36Z</time>
      </trkpt>
      <trkpt lat="43.4167" lon="6.83503">
        <ele>9.18</ele>
        <time>2016-11-12T16:09:51Z</time>
      </trkpt>
      <trkpt lat="43.41673" lon="6.83478">
        <ele>5.37</ele>
        <time>2016-11-12T16:10:06Z</time>
      </trkpt>
      <trkpt lat="43.41675" lon="6.83452">
        <ele>6.02</ele>
        <time>2016-11-12T16:10:19Z</time>
      </trkpt>
      <trkpt lat="43.41685" lon="6.83429">
        <ele>7.82</ele>
        <time>2016-11-12T16:10:33Z</time>
      </trkpt>
      <trkpt lat="43.41693" lon="6.83405">
        <ele>13.14</ele>
        <time>2016-11-12T16:10:48Z</time>
      </trkpt>
      <trkpt lat="43.41706" lon="6.83389">
        <ele>13.22</ele>
        <time>2016-11-12T16:10:59Z</time>
      </trkpt>
      <trkpt lat="43.41717" lon="6.83368">
        <ele>13.17</ele>
        <time>2016-11-12T16:11:14Z</time>
      </trkpt>
      <trkpt lat="43.41728" lon="6.83347">
        <ele>7.62</ele>
        <time>2016-11-12T16:11:28Z</time>
      </trkpt>
      <trkpt lat="43.41731" lon="6.83322">
        <ele>6.58</ele>
        <time>2016-11-12T16:11:40Z</time>
      </trkpt>
      <trkpt lat="43.41741" lon="6.833">
        <ele>8.78</ele>
        <time>2016-11-12T16:11:53Z</time>
      </trkpt>
      <trkpt lat="43.41753" lon="6.8328">
        <ele>8.82</ele>
        <time>2016-11-12T16:12:07Z</time>
      </trkpt>
      <trkpt lat="43.41761" lon="6.83256">
        <ele>10.17</ele>
        <time>2016-11-12T16:12:21Z</time>
      </trkpt>
      <trkpt lat="43.4177" lon="6.83234">
        <ele>6.37</ele>
        <time>2016-11-12T16:12:37Z</time>
      </trkpt>
      <trkpt lat="43.4178" lon="6.83212">
        <ele>7.18</ele>
        <time>2016-11-12T16:12:49Z</time>
      </trkpt>
      <trkpt lat="43.41797" lon="6.83198">
        <ele>4.22</ele>
        <time>2016-11-12T16:13:03Z</time>
      </trkpt>
      <trkpt lat="43.41801" lon="6.83173">
        <ele>5.98</ele>
        <time>2016-11-12T16:13:11Z</time>
      </trkpt>
      <trkpt lat="43.41806" lon="6.83149">
        <ele>8.16</ele>
        <time>2016-11-12T16:13:22Z</time>
      </trkpt>
      <trkpt lat="43.41815" lon="6.83126">
        <ele>7.89</ele>
        <time>2016-11-12T16:13:36Z</time>
      </trkpt>
      <trkpt lat="43.41827" lon="6.83106">
        <ele>3.98</ele>
        <time>2016-11-12T16:13:52Z</time>
      </trkpt>
      <trkpt lat="43.41837" lon="6.83085">
        <ele>4.22</ele>
        <time>2016-11-12T16:14:06Z</time>
      </trkpt>
      <trkpt lat="43.41845" lon="6.83062">
        <ele>1.22</ele>
        <time>2016-11-12T16:14:21Z</time>
      </trkpt>
      <trkpt lat="43.41855" lon="6.83039">
        <ele>-0.02</ele>
        <time>2016-11-12T16:14:36Z</time>
      </trkpt>
      <trkpt lat="43.4186" lon="6.83015">
        <ele>-1.82</ele>
        <time>2016-11-12T16:14:48Z</time>
      </trkpt>
      <trkpt lat="43.41864" lon="6.82989">
        <ele>-1.67</ele>
        <time>2016-11-12T16:14:58Z</time>
      </trkpt>
      <trkpt lat="43.41873" lon="6.82967">
        <ele>-0.85</ele>
        <time>2016-11-12T16:15:12Z</time>
      </trkpt>
      <trkpt lat="43.41877" lon="6.8294">
        <ele>5.93</ele>
        <time>2016-11-12T16:15:23Z</time>
      </trkpt>
      <trkpt lat="43.41883" lon="6.82916">
        <ele>8.37</ele>
        <time>2016-11-12T16:15:38Z</time>
      </trkpt>
      <trkpt lat="43.41879" lon="6.8289">
        <ele>4.62</ele>
        <time>2016-11-12T16:15:51Z</time>
      </trkpt>
      <trkpt lat="43.41871" lon="6.82865">
        <ele>1.18</ele>
        <time>2016-11-12T16:16:05Z</time>
      </trkpt>
      <trkpt lat="43.41864" lon="6.82842">
        <ele>0.01</ele>
        <time>2016-11-12T16:16:21Z</time>
      </trkpt>
      <trkpt lat="43.41855" lon="6.82816">
        <ele>1.17</ele>
        <time>2016-11-12T16:16:32Z</time>
      </trkpt>
      <trkpt lat="43.41845" lon="6.82794">
        <ele>-1.03</ele>
        <time>2016-11-12T16:16:46Z</time>
      </trkpt>
      <trkpt lat="43.41839" lon="6.8277">
        <ele>3.1</ele>
        <time>2016-11-12T16:16:58Z</time>
      </trkpt>
      <trkpt lat="43.41825" lon="6.82748">
        <ele>0.89</ele>
        <time>2016-11-12T16:17:14Z</time>
      </trkpt>
      <trkpt lat="43.41817" lon="6.82723">
        <ele>4.13</ele>
        <time>2016-11-12T16:17:29Z</time>
      </trkpt>
      <trkpt lat="43.41814" lon="6.82695">
        <ele>4.54</ele>
        <time>2016-11-12T16:17:48Z</time>
      </trkpt>
      <trkpt lat="43.41805" lon="6.82671">
        <ele>5.13</ele>
        <time>2016-11-12T16:17:58Z</time>
      </trkpt>
      <trkpt lat="43.41803" lon="6.82643">
        <ele>8.26</ele>
        <time>2016-11-12T16:18:10Z</time>
      </trkpt>
      <trkpt lat="43.41797" lon="6.82618">
        <ele>5.97</ele>
        <time>2016-11-12T16:18:27Z</time>
      </trkpt>
      <trkpt lat="43.41794" lon="6.82593">
        <ele>4.19</ele>
        <time>2016-11-12T16:18:39Z</time>
      </trkpt>
      <trkpt lat="43.41789" lon="6.82569">
        <ele>10.94</ele>
        <time>2016-11-12T16:18:50Z</time>
      </trkpt>
      <trkpt lat="43.41787" lon="6.82544">
        <ele>7.18</ele>
        <time>2016-11-12T16:19:10Z</time>
      </trkpt>
      <trkpt lat="43.41781" lon="6.82519">
        <ele>3.43</ele>
        <time>2016-11-12T16:19:21Z</time>
      </trkpt>
      <trkpt lat="43.41778" lon="6.82493">
        <ele>0.13</ele>
        <time>2016-11-12T16:19:35Z</time>
      </trkpt>
      <trkpt lat="43.41772" lon="6.82464">
        <ele>-1.66</ele>
        <time>2016-11-12T16:19:52Z</time>
      </trkpt>
      <trkpt lat="43.4177" lon="6.82439">
        <ele>-4.82</ele>
        <time>2016-11-12T16:20:03Z</time>
      </trkpt>
      <trkpt lat="43.4177" lon="6.82411">
        <ele>-6.47</ele>
        <time>2016-11-12T16:20:15Z</time>
      </trkpt>
      <trkpt lat="43.41771" lon="6.82384">
        <ele>2.09</ele>
        <time>2016-11-12T16:20:29Z</time>
      </trkpt>
      <trkpt lat="43.41773" lon="6.82358">
        <ele>3.34</ele>
        <time>2016-11-12T16:20:42Z</time>
      </trkpt>
      <trkpt lat="43.41776" lon="6.82332">
        <ele>6.21</ele>
        <time>2016-11-12T16:20:52Z</time>
      </trkpt>
      <trkpt lat="43.41777" lon="6.82307">
        <ele>2.98</ele>
        <time>2016-11-12T16:21:05Z</time>
      </trkpt>
      <trkpt lat="43.41778" lon="6.82281">
        <ele>2.38</ele>
        <time>2016-11-12T16:21:17Z</time>
      </trkpt>
      <trkpt lat="43.41776" lon="6.82255">
        <ele>1.38</ele>
        <time>2016-11-12T16:21:30Z</time>
      </trkpt>
      <trkpt lat="43.4177" lon="6.82232">
        <ele>2.33</ele>
        <time>2016-11-12T16:21:44Z</time>
      </trkpt>
      <trkpt lat="43.41761" lon="6.82209">
        <ele>0.33</ele>
        <time>2016-11-12T16:21:59Z</time>
      </trkpt>
      <trkpt lat="43.41749" lon="6.82188">
        <ele>1.37</ele>
        <time>2016-11-12T16:22:11Z</time>
      </trkpt>
      <trkpt lat="43.41735" lon="6.82172">
        <ele>2.53</ele>
        <time>2016-11-12T16:22:26Z</time>
      </trkpt>
      <trkpt lat="43.41726" lon="6.82148">
        <ele>5.17</ele>
        <time>2016-11-12T16:22:40Z</time>
      </trkpt>
      <trkpt lat="43.41718" lon="6.82124">
        <ele>4.97</ele>
        <time>2016-11-12T16:22:55Z</time>
      </trkpt>
      <trkpt lat="43.41713" lon="6.82097">
        <ele>4.54</ele>
        <time>2016-11-12T16:23:10Z</time>
      </trkpt>
      <trkpt lat="43.41711" lon="6.82071">
        <ele>5.15</ele>
        <time>2016-11-12T16:23:23Z</time>
      </trkpt>
      <trkpt lat="43.41706" lon="6.82046">
        <ele>4.53</ele>
        <time>2016-11-12T16:23:37Z</time>
      </trkpt>
      <trkpt lat="43.41701" lon="6.82022">
        <ele>4.19</ele>
        <time>2016-11-12T16:23:49Z</time>
      </trkpt>
      <trkpt lat="43.41695" lon="6.81996">
        <ele>2.38</ele>
        <time>2016-11-12T16:24:03Z</time>
      </trkpt>
      <trkpt lat="43.41695" lon="6.81969">
        <ele>3.1</ele>
        <time>2016-11-12T16:24:17Z</time>
      </trkpt>
      <trkpt lat="43.4169" lon="6.81944">
        <ele>0.67</ele>
        <time>2016-11-12T16:24:30Z</time>
      </trkpt>
      <trkpt lat="43.4169" lon="6.81918">
        <ele>3.17</ele>
        <time>2016-11-12T16:24:46Z</time>
      </trkpt>
      <trkpt lat="43.41689" lon="6.81894">
        <ele>2.9</ele>
        <time>2016-11-12T16:24:59Z</time>
      </trkpt>
      <trkpt lat="43.41687" lon="6.81869">
        <ele>3.18</ele>
        <time>2016-11-12T16:25:12Z</time>
      </trkpt>
      <trkpt lat="43.41685" lon="6.81844">
        <ele>5.01</ele>
        <time>2016-11-12T16:25:24Z</time>
      </trkpt>
      <trkpt lat="43.41686" lon="6.81818">
        <ele>6.58</ele>
        <time>2016-11-12T16:25:38Z</time>
      </trkpt>
      <trkpt lat="43.41682" lon="6.81794">
        <ele>6.14</ele>
        <time>2016-11-12T16:25:51Z</time>
      </trkpt>
      <trkpt lat="43.41681" lon="6.81767">
        <ele>7.37</ele>
        <time>2016-11-12T16:26:00Z</time>
      </trkpt>
      <trkpt lat="43.41683" lon="6.81741">
        <ele>11.17</ele>
        <time>2016-11-12T16:26:18Z</time>
      </trkpt>
      <trkpt lat="43.41681" lon="6.81715">
        <ele>6.38</ele>
        <time>2016-11-12T16:26:28Z</time>
      </trkpt>
      <trkpt lat="43.41677" lon="6.8169">
        <ele>2.37</ele>
        <time>2016-11-12T16:26:43Z</time>
      </trkpt>
      <trkpt lat="43.41674" lon="6.81663">
        <ele>8.97</ele>
        <time>2016-11-12T16:26:58Z</time>
      </trkpt>
      <trkpt lat="43.41681" lon="6.81639">
        <ele>14.2</ele>
        <time>2016-11-12T16:27:08Z</time>
      </trkpt>
      <trkpt lat="43.41669" lon="6.81618">
        <ele>14.97</ele>
        <time>2016-11-12T16:27:22Z</time>
      </trkpt>
      <trkpt lat="43.41661" lon="6.81596">
        <ele>13.38</ele>
        <time>2016-11-12T16:27:34Z</time>
      </trkpt>
      <trkpt lat="43.41653" lon="6.81573">
        <ele>3.19</ele>
        <time>2016-11-12T16:27:46Z</time>
      </trkpt>
      <trkpt lat="43.41649" lon="6.81548">
        <ele>3.26</ele>
        <time>2016-11-12T16:28:02Z</time>
      </trkpt>
      <trkpt lat="43.41643" lon="6.81523">
        <ele>0.17</ele>
        <time>2016-11-12T16:28:15Z</time>
      </trkpt>
      <trkpt lat="43.41633" lon="6.81502">
        <ele>-4.57</ele>
        <time>2016-11-12T16:28:24Z</time>
      </trkpt>
      <trkpt lat="43.41627" lon="6.81476">
        <ele>-0.24</ele>
        <time>2016-11-12T16:28:39Z</time>
      </trkpt>
      <trkpt lat="43.41619" lon="6.81452">
        <ele>-0.63</ele>
        <time>2016-11-12T16:28:54Z</time>
      </trkpt>
      <trkpt lat="43.4161" lon="6.81428">
        <ele>-1.02</ele>
        <time>2016-11-12T16:29:07Z</time>
      </trkpt>
      <trkpt lat="43.41602" lon="6.81406">
        <ele>-0.83</ele>
        <time>2016-11-12T16:29:21Z</time>
      </trkpt>
      <trkpt lat="43.41593" lon="6.81383">
        <ele>2.58</ele>
        <time>2016-11-12T16:29:33Z</time>
      </trkpt>
      <trkpt lat="43.41586" lon="6.81359">
        <ele>5.22</ele>
        <time>2016-11-12T16:29:47Z</time>
      </trkpt>
      <trkpt lat="43.41578" lon="6.81336">
        <ele>-3.06</ele>
        <time>2016-11-12T16:30:01Z</time>
      </trkpt>
      <trkpt lat="43.41571" lon="6.81312">
        <ele>-1.07</ele>
        <time>2016-11-12T16:30:11Z</time>
      </trkpt>
      <trkpt lat="43.41564" lon="6.81288">
        <ele>1.02</ele>
        <time>2016-11-12T16:30:28Z</time>
      </trkpt>
      <trkpt lat="43.41553" lon="6.81267">
        <ele>2.19</ele>
        <time>2016-11-12T16:30:40Z</time>
      </trkpt>
      <trkpt lat="43.41542" lon="6.81244">
        <ele>2.37</ele>
        <time>2016-11-12T16:30:56Z</time>
      </trkpt>
      <trkpt lat="43.41536" lon="6.81219">
        <ele>6.12</ele>
        <time>2016-11-12T16:31:07Z</time>
      </trkpt>
      <trkpt lat="43.41528" lon="6.81196">
        <ele>6.69</ele>
        <time>2016-11-12T16:31:18Z</time>
      </trkpt>
      <trkpt lat="43.41525" lon="6.81171">
        <ele>8.38</ele>
        <time>2016-11-12T16:31:34Z</time>
      </trkpt>
      <trkpt lat="43.41523" lon="6.81143">
        <ele>7.11</ele>
        <time>2016-11-12T16:31:44Z</time>
      </trkpt>
      <trkpt lat="43.41522" lon="6.81117">
        <ele>8.12</ele>
        <time>2016-11-12T16:31:59Z</time>
      </trkpt>
      <trkpt lat="43.41515" lon="6.81094">
        <ele>4.22</ele>
        <time>2016-11-12T16:32:12Z</time>
      </trkpt>
      <trkpt lat="43.4151" lon="6.81068">
        <ele>7.35</ele>
        <time>2016-11-12T16:32:23Z</time>
      </trkpt>
      <trkpt lat="43.41498" lon="6.81045">
        <ele>6.98</ele>
        <time>2016-11-12T16:32:36Z</time>
      </trkpt>
      <trkpt lat="43.41508" lon="6.81021">
        <ele>9.01</ele>
        <time>2016-11-12T16:32:48Z</time>
      </trkpt>
      <trkpt lat="43.41505" lon="6.80996">
        <ele>6.21</ele>
        <time>2016-11-12T16:33:04Z</time>
      </trkpt>
      <trkpt lat="43.415" lon="6.80972">
        <ele>6.18</ele>
        <time>2016-11-12T16:33:18Z</time>
      </trkpt>
      <trkpt lat="43.41495" lon="6.80946">
        <ele>7.42</ele>
        <time>2016-11-12T16:33:29Z</time>
      </trkpt>
      <trkpt lat="43.4149" lon="6.80921">
        <ele>6.36</ele>
        <time>2016-11-12T16:33:44Z</time>
      </trkpt>
      <trkpt lat="43.41484" lon="6.80896">
        <ele>10.05</ele>
        <time>2016-11-12T16:33:57Z</time>
      </trkpt>
      <trkpt lat="43.41479" lon="6.80871">
        <ele>2.75</ele>
        <time>2016-11-12T16:34:11Z</time>
      </trkpt>
      <trkpt lat="43.41476" lon="6.80846">
        <ele>3.5</ele>
        <time>2016-11-12T16:34:22Z</time>
      </trkpt>
      <trkpt lat="43.41472" lon="6.8082">
        <ele>8.16</ele>
        <time>2016-11-12T16:34:37Z</time>
      </trkpt>
      <trkpt lat="43.41467" lon="6.80793">
        <ele>7.2</ele>
        <time>2016-11-12T16:34:49Z</time>
      </trkpt>
      <trkpt lat="43.41468" lon="6.80768">
        <ele>7.21</ele>
        <time>2016-11-12T16:35:05Z</time>
      </trkpt>
      <trkpt lat="43.41469" lon="6.80741">
        <ele>6.18</ele>
        <time>2016-11-12T16:35:14Z</time>
      </trkpt>
      <trkpt lat="43.41478" lon="6.80717">
        <ele>4.86</ele>
        <time>2016-11-12T16:35:28Z</time>
      </trkpt>
      <trkpt lat="43.41464" lon="6.807">
        <ele>5.38</ele>
        <time>2016-11-12T16:35:35Z</time>
      </trkpt>
      <trkpt lat="43.41467" lon="6.80674">
        <ele>-0.78</ele>
        <time>2016-11-12T16:35:53Z</time>
      </trkpt>
      <trkpt lat="43.41465" lon="6.80648">
        <ele>-7.79</ele>
        <time>2016-11-12T16:36:07Z</time>
      </trkpt>
      <trkpt lat="43.41464" lon="6.80622">
        <ele>-6.86</ele>
        <time>2016-11-12T16:36:20Z</time>
      </trkpt>
      <trkpt lat="43.41465" lon="6.80597">
        <ele>-3.23</ele>
        <time>2016-11-12T16:36:34Z</time>
      </trkpt>
      <trkpt lat="43.41467" lon="6.80572">
        <ele>4.01</ele>
        <time>2016-11-12T16:36:45Z</time>
      </trkpt>
      <trkpt lat="43.41466" lon="6.80547">
        <ele>0.32</ele>
        <time>2016-11-12T16:36:59Z</time>
      </trkpt>
      <trkpt lat="43.41468" lon="6.80522">
        <ele>1.39</ele>
        <time>2016-11-12T16:37:12Z</time>
      </trkpt>
      <trkpt lat="43.41468" lon="6.80496">
        <ele>-0.02</ele>
        <time>2016-11-12T16:37:25Z</time>
      </trkpt>
      <trkpt lat="43.41471" lon="6.8047">
        <ele>-3.74</ele>
        <time>2016-11-12T16:37:42Z</time>
      </trkpt>
      <trkpt lat="43.41468" lon="6.80445">
        <ele>-0.63</ele>
        <time>2016-11-12T16:37:57Z</time>
      </trkpt>
      <trkpt lat="43.41466" lon="6.80418">
        <ele>1.12</ele>
        <time>2016-11-12T16:38:09Z</time>
      </trkpt>
      <trkpt lat="43.4146" lon="6.80394">
        <ele>0.19</ele>
        <time>2016-11-12T16:38:22Z</time>
      </trkpt>
      <trkpt lat="43.4146" lon="6.80367">
        <ele>4.12</ele>
        <time>2016-11-12T16:38:37Z</time>
      </trkpt>
      <trkpt lat="43.4146" lon="6.80342">
        <ele>0.58</ele>
        <time>2016-11-12T16:38:49Z</time>
      </trkpt>
      <trkpt lat="43.4145" lon="6.80319">
        <ele>-0.63</ele>
        <time>2016-11-12T16:39:02Z</time>
      </trkpt>
      <trkpt lat="43.41444" lon="6.80291">
        <ele>-1.82</ele>
        <time>2016-11-12T16:39:16Z</time>
      </trkpt>
      <trkpt lat="43.41444" lon="6.80266">
        <ele>-3.38</ele>
        <time>2016-11-12T16:39:29Z</time>
      </trkpt>
      <trkpt lat="43.41436" lon="6.80244">
        <ele>0.37</ele>
        <time>2016-11-12T16:39:41Z</time>
      </trkpt>
      <trkpt lat="43.41436" lon="6.80218">
        <ele>1.22</ele>
        <time>2016-11-12T16:39:58Z</time>
      </trkpt>
      <trkpt lat="43.41429" lon="6.80195">
        <ele>-0.47</ele>
        <time>2016-11-12T16:40:10Z</time>
      </trkpt>
      <trkpt lat="43.41426" lon="6.80171">
        <ele>1.21</ele>
        <time>2016-11-12T16:40:22Z</time>
      </trkpt>
      <trkpt lat="43.41423" lon="6.80145">
        <ele>0.15</ele>
        <time>2016-11-12T16:40:37Z</time>
      </trkpt>
      <trkpt lat="43.41419" lon="6.80119">
        <ele>-2.57</ele>
        <time>2016-11-12T16:40:54Z</time>
      </trkpt>
      <trkpt lat="43.4141" lon="6.80094">
        <ele>-1.06</ele>
        <time>2016-11-12T16:41:07Z</time>
      </trkpt>
      <trkpt lat="43.41403" lon="6.8007">
        <ele>1.98</ele>
        <time>2016-11-12T16:41:24Z</time>
      </trkpt>
      <trkpt lat="43.41396" lon="6.80044">
        <ele>1.78</ele>
        <time>2016-11-12T16:41:36Z</time>
      </trkpt>
      <trkpt lat="43.4138" lon="6.80028">
        <ele>-3.62</ele>
        <time>2016-11-12T16:41:51Z</time>
      </trkpt>
      <trkpt lat="43.41381" lon="6.80002">
        <ele>-4.67</ele>
        <time>2016-11-12T16:41:57Z</time>
      </trkpt>
      <trkpt lat="43.4138" lon="6.79976">
        <ele>-4.87</ele>
        <time>2016-11-12T16:42:10Z</time>
      </trkpt>
      <trkpt lat="43.41384" lon="6.7995">
        <ele>-5.87</ele>
        <time>2016-11-12T16:42:23Z</time>
      </trkpt>
      <trkpt lat="43.41386" lon="6.79925">
        <ele>-7.82</ele>
        <time>2016-11-12T16:42:39Z</time>
      </trkpt>
      <trkpt lat="43.41389" lon="6.799">
        <ele>-3.66</ele>
        <time>2016-11-12T16:42:49Z</time>
      </trkpt>
      <trkpt lat="43.41394" lon="6.79876">
        <ele>1.13</ele>
        <time>2016-11-12T16:43:00Z</time>
      </trkpt>
      <trkpt lat="43.41397" lon="6.7985">
        <ele>-0.82</ele>
        <time>2016-11-12T16:43:14Z</time>
      </trkpt>
      <trkpt lat="43.414" lon="6.79826">
        <ele>-4.02</ele>
        <time>2016-11-12T16:43:28Z</time>
      </trkpt>
      <trkpt lat="43.41403" lon="6.798">
        <ele>-4.01</ele>
        <time>2016-11-12T16:43:41Z</time>
      </trkpt>
      <trkpt lat="43.41408" lon="6.79775">
        <ele>-4.63</ele>
        <time>2016-11-12T16:43:55Z</time>
      </trkpt>
      <trkpt lat="43.41412" lon="6.7975">
        <ele>-4.63</ele>
        <time>2016-11-12T16:44:07Z</time>
      </trkpt>
      <trkpt lat="43.4142" lon="6.79725">
        <ele>1.15</ele>
        <time>2016-11-12T16:44:22Z</time>
      </trkpt>
      <trkpt lat="43.4142" lon="6.79698">
        <ele>-0.01</ele>
        <time>2016-11-12T16:44:33Z</time>
      </trkpt>
      <trkpt lat="43.41421" lon="6.79671">
        <ele>3.51</ele>
        <time>2016-11-12T16:44:50Z</time>
      </trkpt>
      <trkpt lat="43.41417" lon="6.79645">
        <ele>6.14</ele>
        <time>2016-11-12T16:45:02Z</time>
      </trkpt>
      <trkpt lat="43.41416" lon="6.79619">
        <ele>5.14</ele>
        <time>2016-11-12T16:45:16Z</time>
      </trkpt>
      <trkpt lat="43.41411" lon="6.79594">
        <ele>3.42</ele>
        <time>2016-11-12T16:45:30Z</time>
      </trkpt>
      <trkpt lat="43.41404" lon="6.7957">
        <ele>8.13</ele>
        <time>2016-11-12T16:45:43Z</time>
      </trkpt>
      <trkpt lat="43.41395" lon="6.79548">
        <ele>9.22</ele>
        <time>2016-11-12T16:45:54Z</time>
      </trkpt>
      <trkpt lat="43.41388" lon="6.79525">
        <ele>7.34</ele>
        <time>2016-11-12T16:46:06Z</time>
      </trkpt>
      <trkpt lat="43.41384" lon="6.79499">
        <ele>1.78</ele>
        <time>2016-11-12T16:46:24Z</time>
      </trkpt>
      <trkpt lat="43.41375" lon="6.79476">
        <ele>8.88</ele>
        <time>2016-11-12T16:46:34Z</time>
      </trkpt>
      <trkpt lat="43.41369" lon="6.79452">
        <ele>6.18</ele>
        <time>2016-11-12T16:46:50Z</time>
      </trkpt>
      <trkpt lat="43.4136" lon="6.79428">
        <ele>6.97</ele>
        <time>2016-11-12T16:47:03Z</time>
      </trkpt>
      <trkpt lat="43.41351" lon="6.79405">
        <ele>5.18</ele>
        <time>2016-11-12T16:47:19Z</time>
      </trkpt>
      <trkpt lat="43.41343" lon="6.7938">
        <ele>3.21</ele>
        <time>2016-11-12T16:47:34Z</time>
      </trkpt>
      <trkpt lat="43.41334" lon="6.79358">
        <ele>6.01</ele>
        <time>2016-11-12T16:47:49Z</time>
      </trkpt>
      <trkpt lat="43.41328" lon="6.79333">
        <ele>5.37</ele>
        <time>2016-11-12T16:48:03Z</time>
      </trkpt>
      <trkpt lat="43.41322" lon="6.79309">
        <ele>3.94</ele>
        <time>2016-11-12T16:48:19Z</time>
      </trkpt>
      <trkpt lat="43.41313" lon="6.79283">
        <ele>6.17</ele>
        <time>2016-11-12T16:48:33Z</time>
      </trkpt>
      <trkpt lat="43.41299" lon="6.79263">
        <ele>3.36</ele>
        <time>2016-11-12T16:48:47Z</time>
      </trkpt>
      <trkpt lat="43.41295" lon="6.79237">
        <ele>9.01</ele>
        <time>2016-11-12T16:49:04Z</time>
      </trkpt>
      <trkpt lat="43.41284" lon="6.79216">
        <ele>9.49</ele>
        <time>2016-11-12T16:49:19Z</time>
      </trkpt>
      <trkpt lat="43.41276" lon="6.79192">
        <ele>9.22</ele>
        <time>2016-11-12T16:49:33Z</time>
      </trkpt>
      <trkpt lat="43.41269" lon="6.79167">
        <ele>7.86</ele>
        <time>2016-11-12T16:49:49Z</time>
      </trkpt>
      <trkpt lat="43.41263" lon="6.79143">
        <ele>12.34</ele>
        <time>2016-11-12T16:50:03Z</time>
      </trkpt>
      <trkpt lat="43.41256" lon="6.79116">
        <ele>11.18</ele>
        <time>2016-11-12T16:50:17Z</time>
      </trkpt>
      <trkpt lat="43.41251" lon="6.79092">
        <ele>11.97</ele>
        <time>2016-11-12T16:50:31Z</time>
      </trkpt>
      <trkpt lat="43.41248" lon="6.79066">
        <ele>13.36</ele>
        <time>2016-11-12T16:50:45Z</time>
      </trkpt>
      <trkpt lat="43.41242" lon="6.79041">
        <ele>13.13</ele>
        <time>2016-11-12T16:50:57Z</time>
      </trkpt>
      <trkpt lat="43.41236" lon="6.79017">
        <ele>13</ele>
        <time>2016-11-12T16:51:11Z</time>
      </trkpt>
      <trkpt lat="43.41229" lon="6.78994">
        <ele>17.21</ele>
        <time>2016-11-12T16:51:25Z</time>
      </trkpt>
      <trkpt lat="43.41218" lon="6.78974">
        <ele>16.02</ele>
        <time>2016-11-12T16:51:38Z</time>
      </trkpt>
      <trkpt lat="43.41206" lon="6.78953">
        <ele>9.99</ele>
        <time>2016-11-12T16:51:56Z</time>
      </trkpt>
      <trkpt lat="43.41194" lon="6.78934">
        <ele>11.94</ele>
        <time>2016-11-12T16:52:07Z</time>
      </trkpt>
      <trkpt lat="43.41183" lon="6.78913">
        <ele>14.21</ele>
        <time>2016-11-12T16:52:23Z</time>
      </trkpt>
      <trkpt lat="43.41172" lon="6.78892">
        <ele>10.99</ele>
        <time>2016-11-12T16:52:36Z</time>
      </trkpt>
      <trkpt lat="43.41155" lon="6.78878">
        <ele>8.18</ele>
        <time>2016-11-12T16:52:46Z</time>
      </trkpt>
      <trkpt lat="43.41148" lon="6.78855">
        <ele>10.04</ele>
        <time>2016-11-12T16:53:01Z</time>
      </trkpt>
      <trkpt lat="43.41142" lon="6.7883">
        <ele>9.38</ele>
        <time>2016-11-12T16:53:15Z</time>
      </trkpt>
      <trkpt lat="43.41141" lon="6.78805">
        <ele>12.97</ele>
        <time>2016-11-12T16:53:27Z</time>
      </trkpt>
      <trkpt lat="43.41138" lon="6.78781">
        <ele>13.18</ele>
        <time>2016-11-12T16:53:41Z</time>
      </trkpt>
      <trkpt lat="43.41133" lon="6.78756">
        <ele>13.14</ele>
        <time>2016-11-12T16:53:55Z</time>
      </trkpt>
      <trkpt lat="43.41128" lon="6.7873">
        <ele>12.37</ele>
        <time>2016-11-12T16:54:09Z</time>
      </trkpt>
      <trkpt lat="43.41124" lon="6.78704">
        <ele>11.15</ele>
        <time>2016-11-12T16:54:22Z</time>
      </trkpt>
      <trkpt lat="43.41123" lon="6.78679">
        <ele>9.98</ele>
        <time>2016-11-12T16:54:36Z</time>
      </trkpt>
      <trkpt lat="43.41118" lon="6.78653">
        <ele>7.98</ele>
        <time>2016-11-12T16:54:51Z</time>
      </trkpt>
      <trkpt lat="43.4112" lon="6.78626">
        <ele>11.13</ele>
        <time>2016-11-12T16:55:04Z</time>
      </trkpt>
      <trkpt lat="43.41123" lon="6.78601">
        <ele>12.21</ele>
        <time>2016-11-12T16:55:18Z</time>
      </trkpt>
      <trkpt lat="43.41129" lon="6.78578">
        <ele>11.21</ele>
        <time>2016-11-12T16:55:33Z</time>
      </trkpt>
      <trkpt lat="43.4114" lon="6.78557">
        <ele>14.17</ele>
        <time>2016-11-12T16:55:43Z</time>
      </trkpt>
      <trkpt lat="43.41147" lon="6.78533">
        <ele>9.02</ele>
        <time>2016-11-12T16:55:58Z</time>
      </trkpt>
      <trkpt lat="43.41155" lon="6.78509">
        <ele>10.54</ele>
        <time>2016-11-12T16:56:41Z</time>
      </trkpt>
      <trkpt lat="43.41169" lon="6.78493">
        <ele>7.18</ele>
        <time>2016-11-12T16:56:57Z</time>
      </trkpt>
      <trkpt lat="43.41188" lon="6.78477">
        <ele>0.38</ele>
        <time>2016-11-12T16:57:19Z</time>
      </trkpt>
      <trkpt lat="43.41193" lon="6.78451">
        <ele>-2.54</ele>
        <time>2016-11-12T16:57:29Z</time>
      </trkpt>
      <trkpt lat="43.41204" lon="6.78431">
        <ele>-5.66</ele>
        <time>2016-11-12T16:57:50Z</time>
      </trkpt>
      <trkpt lat="43.41216" lon="6.78408">
        <ele>-10.62</ele>
        <time>2016-11-12T16:58:02Z</time>
      </trkpt>
      <trkpt lat="43.4123" lon="6.78391">
        <ele>-7.82</ele>
        <time>2016-11-12T16:58:14Z</time>
      </trkpt>
      <trkpt lat="43.41244" lon="6.78374">
        <ele>-10.66</ele>
        <time>2016-11-12T16:58:24Z</time>
      </trkpt>
      <trkpt lat="43.41252" lon="6.7835">
        <ele>-11.63</ele>
        <time>2016-11-12T16:58:38Z</time>
      </trkpt>
      <trkpt lat="43.41267" lon="6.78333">
        <ele>-9.79</ele>
        <time>2016-11-12T16:58:49Z</time>
      </trkpt>
      <trkpt lat="43.41277" lon="6.78311">
        <ele>-7.06</ele>
        <time>2016-11-12T16:59:02Z</time>
      </trkpt>
      <trkpt lat="43.41285" lon="6.78288">
        <ele>-7.86</ele>
        <time>2016-11-12T16:59:31Z</time>
      </trkpt>
      <trkpt lat="43.41288" lon="6.78264">
        <ele>-5.83</ele>
        <time>2016-11-12T16:59:46Z</time>
      </trkpt>
      <trkpt lat="43.41303" lon="6.78247">
        <ele>-1.6</ele>
        <time>2016-11-12T17:00:00Z</time>
      </trkpt>
      <trkpt lat="43.41313" lon="6.78225">
        <ele>-3.66</ele>
        <time>2016-11-12T17:00:15Z</time>
      </trkpt>
      <trkpt lat="43.41327" lon="6.78208">
        <ele>-2.82</ele>
        <time>2016-11-12T17:00:29Z</time>
      </trkpt>
      <trkpt lat="43.41339" lon="6.78189">
        <ele>-3.83</ele>
        <time>2016-11-12T17:00:42Z</time>
      </trkpt>
      <trkpt lat="43.41356" lon="6.78173">
        <ele>-5.85</ele>
        <time>2016-11-12T17:00:56Z</time>
      </trkpt>
      <trkpt lat="43.41371" lon="6.7816">
        <ele>-7.86</ele>
        <time>2016-11-12T17:01:10Z</time>
      </trkpt>
      <trkpt lat="43.41388" lon="6.78145">
        <ele>-7.82</ele>
        <time>2016-11-12T17:01:24Z</time>
      </trkpt>
      <trkpt lat="43.41405" lon="6.78137">
        <ele>-7.82</ele>
        <time>2016-11-12T17:01:39Z</time>
      </trkpt>
      <trkpt lat="43.41418" lon="6.78119">
        <ele>-5.82</ele>
        <time>2016-11-12T17:01:51Z</time>
      </trkpt>
      <trkpt lat="43.41427" lon="6.78096">
        <ele>-5.86</ele>
        <time>2016-11-12T17:02:34Z</time>
      </trkpt>
      <trkpt lat="43.41432" lon="6.7807">
        <ele>-4.87</ele>
        <time>2016-11-12T17:02:48Z</time>
      </trkpt>
      <trkpt lat="43.41433" lon="6.78044">
        <ele>-5.66</ele>
        <time>2016-11-12T17:03:02Z</time>
      </trkpt>
      <trkpt lat="43.41429" lon="6.78019">
        <ele>-3.86</ele>
        <time>2016-11-12T17:03:14Z</time>
      </trkpt>
      <trkpt lat="43.41438" lon="6.77997">
        <ele>-0.63</ele>
        <time>2016-11-12T17:03:28Z</time>
      </trkpt>
      <trkpt lat="43.41452" lon="6.7798">
        <ele>-1.03</ele>
        <time>2016-11-12T17:03:45Z</time>
      </trkpt>
      <trkpt lat="43.4147" lon="6.77975">
        <ele>-0.83</ele>
        <time>2016-11-12T17:04:02Z</time>
      </trkpt>
    </trkseg>
  </trk>
</gpx>